<?xml version="1.0" encoding="UTF-8" standalone="no" ?>
<gpx xmlns="http://www.topografix.com/GPX/1/1" xmlns:xsi="http://www.w3.org/2001/XMLSchema-instance" xsi:schemaLocation="http://www.topografix.com/GPX/1/1 http://www.topografix.com/GPX/1/1/gpx.xsd" version="1.1" creator="VisuGPX - https://www.visugpx.com">
  <metadata>
    <name>CRETES ET VIGNES</name>
    <desc><![CDATA[Se garer à l'église St Martin commune de St Gauzens, Passer côté cimetière descendre petite route (magnifique chêne) puis suivre balisage jaune jusqu'à l'intersection des 2 circuits prendre à droite circuit des Crêtes puis au retour circuit des vignes et rejoindre église en empruntant balisage jaune ..]]></desc>
  </metadata>
  <trk>
    <name><![CDATA[CRETES ET VIGNES]]></name>
    <trkseg>
      <trkpt lat="43.72976" lon="1.90404">
        <ele>254.41</ele>
        <time>2019-04-14T11:57:26Z</time>
      </trkpt>
      <trkpt lat="43.72976" lon="1.90404">
        <ele>251.52</ele>
        <time>2019-04-14T11:57:29Z</time>
      </trkpt>
      <trkpt lat="43.72976" lon="1.90404">
        <ele>251.52</ele>
        <time>2019-04-14T11:57:30Z</time>
      </trkpt>
      <trkpt lat="43.72976" lon="1.90402">
        <ele>251.52</ele>
        <time>2019-04-14T11:57:55Z</time>
      </trkpt>
      <trkpt lat="43.72975" lon="1.904">
        <ele>251.52</ele>
        <time>2019-04-14T11:58:16Z</time>
      </trkpt>
      <trkpt lat="43.72971" lon="1.90399">
        <ele>252</ele>
        <time>2019-04-14T11:58:36Z</time>
      </trkpt>
      <trkpt lat="43.72969" lon="1.904">
        <ele>252</ele>
        <time>2019-04-14T11:58:40Z</time>
      </trkpt>
      <trkpt lat="43.72958" lon="1.90402">
        <ele>252.48</ele>
        <time>2019-04-14T11:58:53Z</time>
      </trkpt>
      <trkpt lat="43.72949" lon="1.90407">
        <ele>252.96</ele>
        <time>2019-04-14T11:59:05Z</time>
      </trkpt>
      <trkpt lat="43.72945" lon="1.90411">
        <ele>253.44</ele>
        <time>2019-04-14T11:59:17Z</time>
      </trkpt>
      <trkpt lat="43.72941" lon="1.90413">
        <ele>253.44</ele>
        <time>2019-04-14T11:59:31Z</time>
      </trkpt>
      <trkpt lat="43.72938" lon="1.90419">
        <ele>253.44</ele>
        <time>2019-04-14T11:59:45Z</time>
      </trkpt>
      <trkpt lat="43.72935" lon="1.90427">
        <ele>253.93</ele>
        <time>2019-04-14T11:59:58Z</time>
      </trkpt>
      <trkpt lat="43.72931" lon="1.90439">
        <ele>252.48</ele>
        <time>2019-04-14T12:00:07Z</time>
      </trkpt>
      <trkpt lat="43.72926" lon="1.90457">
        <ele>250.56</ele>
        <time>2019-04-14T12:00:24Z</time>
      </trkpt>
      <trkpt lat="43.72926" lon="1.90479">
        <ele>249.12</ele>
        <time>2019-04-14T12:00:38Z</time>
      </trkpt>
      <trkpt lat="43.72925" lon="1.90501">
        <ele>248.16</ele>
        <time>2019-04-14T12:00:52Z</time>
      </trkpt>
      <trkpt lat="43.72917" lon="1.90526">
        <ele>245.27</ele>
        <time>2019-04-14T12:01:07Z</time>
      </trkpt>
      <trkpt lat="43.72913" lon="1.90549">
        <ele>242.39</ele>
        <time>2019-04-14T12:01:22Z</time>
      </trkpt>
      <trkpt lat="43.72905" lon="1.90575">
        <ele>239.02</ele>
        <time>2019-04-14T12:01:41Z</time>
      </trkpt>
      <trkpt lat="43.7291" lon="1.90603">
        <ele>237.1</ele>
        <time>2019-04-14T12:01:58Z</time>
      </trkpt>
      <trkpt lat="43.72908" lon="1.90639">
        <ele>235.66</ele>
        <time>2019-04-14T12:02:18Z</time>
      </trkpt>
      <trkpt lat="43.72912" lon="1.90672">
        <ele>232.78</ele>
        <time>2019-04-14T12:02:38Z</time>
      </trkpt>
      <trkpt lat="43.72921" lon="1.90707">
        <ele>231.33</ele>
        <time>2019-04-14T12:03:00Z</time>
      </trkpt>
      <trkpt lat="43.72925" lon="1.90738">
        <ele>228.45</ele>
        <time>2019-04-14T12:03:20Z</time>
      </trkpt>
      <trkpt lat="43.72923" lon="1.90763">
        <ele>225.57</ele>
        <time>2019-04-14T12:03:35Z</time>
      </trkpt>
      <trkpt lat="43.72928" lon="1.90798">
        <ele>223.16</ele>
        <time>2019-04-14T12:03:56Z</time>
      </trkpt>
      <trkpt lat="43.72938" lon="1.90826">
        <ele>222.68</ele>
        <time>2019-04-14T12:04:15Z</time>
      </trkpt>
      <trkpt lat="43.7295" lon="1.90864">
        <ele>222.2</ele>
        <time>2019-04-14T12:04:38Z</time>
      </trkpt>
      <trkpt lat="43.72959" lon="1.90893">
        <ele>222.2</ele>
        <time>2019-04-14T12:04:57Z</time>
      </trkpt>
      <trkpt lat="43.72962" lon="1.90904">
        <ele>223.64</ele>
        <time>2019-04-14T12:05:05Z</time>
      </trkpt>
      <trkpt lat="43.72971" lon="1.90937">
        <ele>226.05</ele>
        <time>2019-04-14T12:05:27Z</time>
      </trkpt>
      <trkpt lat="43.7298" lon="1.90961">
        <ele>226.05</ele>
        <time>2019-04-14T12:05:45Z</time>
      </trkpt>
      <trkpt lat="43.72988" lon="1.90993">
        <ele>223.16</ele>
        <time>2019-04-14T12:06:06Z</time>
      </trkpt>
      <trkpt lat="43.72993" lon="1.91023">
        <ele>220.76</ele>
        <time>2019-04-14T12:06:24Z</time>
      </trkpt>
      <trkpt lat="43.73001" lon="1.91056">
        <ele>217.88</ele>
        <time>2019-04-14T12:06:45Z</time>
      </trkpt>
      <trkpt lat="43.73019" lon="1.91098">
        <ele>217.88</ele>
        <time>2019-04-14T12:07:13Z</time>
      </trkpt>
      <trkpt lat="43.73022" lon="1.91104">
        <ele>219.32</ele>
        <time>2019-04-14T12:07:17Z</time>
      </trkpt>
      <trkpt lat="43.73039" lon="1.91127">
        <ele>222.2</ele>
        <time>2019-04-14T12:07:38Z</time>
      </trkpt>
      <trkpt lat="43.73051" lon="1.91144">
        <ele>225.09</ele>
        <time>2019-04-14T12:07:55Z</time>
      </trkpt>
      <trkpt lat="43.73063" lon="1.91164">
        <ele>227.97</ele>
        <time>2019-04-14T12:08:15Z</time>
      </trkpt>
      <trkpt lat="43.73079" lon="1.91187">
        <ele>230.37</ele>
        <time>2019-04-14T12:08:36Z</time>
      </trkpt>
      <trkpt lat="43.73089" lon="1.91203">
        <ele>231.81</ele>
        <time>2019-04-14T12:08:53Z</time>
      </trkpt>
      <trkpt lat="43.73104" lon="1.91232">
        <ele>234.22</ele>
        <time>2019-04-14T12:09:16Z</time>
      </trkpt>
      <trkpt lat="43.73119" lon="1.91256">
        <ele>235.18</ele>
        <time>2019-04-14T12:09:37Z</time>
      </trkpt>
      <trkpt lat="43.73123" lon="1.91277">
        <ele>235.18</ele>
        <time>2019-04-14T12:09:59Z</time>
      </trkpt>
      <trkpt lat="43.73122" lon="1.91277">
        <ele>235.18</ele>
        <time>2019-04-14T12:10:16Z</time>
      </trkpt>
      <trkpt lat="43.73118" lon="1.91282">
        <ele>236.14</ele>
        <time>2019-04-14T12:10:32Z</time>
      </trkpt>
      <trkpt lat="43.73109" lon="1.91292">
        <ele>236.14</ele>
        <time>2019-04-14T12:10:51Z</time>
      </trkpt>
      <trkpt lat="43.73089" lon="1.91312">
        <ele>236.14</ele>
        <time>2019-04-14T12:11:13Z</time>
      </trkpt>
      <trkpt lat="43.7307" lon="1.91336">
        <ele>236.14</ele>
        <time>2019-04-14T12:11:36Z</time>
      </trkpt>
      <trkpt lat="43.73057" lon="1.91353">
        <ele>237.1</ele>
        <time>2019-04-14T12:11:51Z</time>
      </trkpt>
      <trkpt lat="43.7305" lon="1.91373">
        <ele>237.1</ele>
        <time>2019-04-14T12:12:10Z</time>
      </trkpt>
      <trkpt lat="43.7305" lon="1.91375">
        <ele>237.1</ele>
        <time>2019-04-14T12:12:13Z</time>
      </trkpt>
      <trkpt lat="43.73047" lon="1.91388">
        <ele>235.66</ele>
        <time>2019-04-14T12:12:23Z</time>
      </trkpt>
      <trkpt lat="43.73044" lon="1.91394">
        <ele>235.18</ele>
        <time>2019-04-14T12:12:28Z</time>
      </trkpt>
      <trkpt lat="43.73037" lon="1.91419">
        <ele>233.26</ele>
        <time>2019-04-14T12:12:48Z</time>
      </trkpt>
      <trkpt lat="43.73036" lon="1.91431">
        <ele>232.3</ele>
        <time>2019-04-14T12:12:57Z</time>
      </trkpt>
      <trkpt lat="43.73038" lon="1.91457">
        <ele>228.93</ele>
        <time>2019-04-14T12:13:15Z</time>
      </trkpt>
      <trkpt lat="43.73042" lon="1.91491">
        <ele>227.97</ele>
        <time>2019-04-14T12:13:35Z</time>
      </trkpt>
      <trkpt lat="43.7304" lon="1.91522">
        <ele>226.05</ele>
        <time>2019-04-14T12:13:53Z</time>
      </trkpt>
      <trkpt lat="43.73029" lon="1.91552">
        <ele>225.09</ele>
        <time>2019-04-14T12:14:13Z</time>
      </trkpt>
      <trkpt lat="43.73022" lon="1.91575">
        <ele>224.12</ele>
        <time>2019-04-14T12:14:29Z</time>
      </trkpt>
      <trkpt lat="43.7301" lon="1.91603">
        <ele>223.16</ele>
        <time>2019-04-14T12:14:48Z</time>
      </trkpt>
      <trkpt lat="43.73006" lon="1.91612">
        <ele>223.16</ele>
        <time>2019-04-14T12:14:54Z</time>
      </trkpt>
      <trkpt lat="43.72994" lon="1.91644">
        <ele>222.2</ele>
        <time>2019-04-14T12:15:14Z</time>
      </trkpt>
      <trkpt lat="43.72987" lon="1.91684">
        <ele>220.76</ele>
        <time>2019-04-14T12:15:38Z</time>
      </trkpt>
      <trkpt lat="43.72984" lon="1.9171">
        <ele>220.28</ele>
        <time>2019-04-14T12:15:54Z</time>
      </trkpt>
      <trkpt lat="43.72981" lon="1.91744">
        <ele>219.32</ele>
        <time>2019-04-14T12:16:15Z</time>
      </trkpt>
      <trkpt lat="43.72981" lon="1.91777">
        <ele>218.84</ele>
        <time>2019-04-14T12:16:36Z</time>
      </trkpt>
      <trkpt lat="43.72983" lon="1.91811">
        <ele>217.88</ele>
        <time>2019-04-14T12:16:56Z</time>
      </trkpt>
      <trkpt lat="43.72992" lon="1.91845">
        <ele>216.91</ele>
        <time>2019-04-14T12:17:20Z</time>
      </trkpt>
      <trkpt lat="43.73" lon="1.91872">
        <ele>216.91</ele>
        <time>2019-04-14T12:17:39Z</time>
      </trkpt>
      <trkpt lat="43.73013" lon="1.91905">
        <ele>215.95</ele>
        <time>2019-04-14T12:18:02Z</time>
      </trkpt>
      <trkpt lat="43.73022" lon="1.9194">
        <ele>215.95</ele>
        <time>2019-04-14T12:18:24Z</time>
      </trkpt>
      <trkpt lat="43.73032" lon="1.91975">
        <ele>217.88</ele>
        <time>2019-04-14T12:18:46Z</time>
      </trkpt>
      <trkpt lat="43.73036" lon="1.92018">
        <ele>218.36</ele>
        <time>2019-04-14T12:19:12Z</time>
      </trkpt>
      <trkpt lat="43.73039" lon="1.92056">
        <ele>219.8</ele>
        <time>2019-04-14T12:19:34Z</time>
      </trkpt>
      <trkpt lat="43.73036" lon="1.92093">
        <ele>220.28</ele>
        <time>2019-04-14T12:19:55Z</time>
      </trkpt>
      <trkpt lat="43.73037" lon="1.92131">
        <ele>221.24</ele>
        <time>2019-04-14T12:20:18Z</time>
      </trkpt>
      <trkpt lat="43.73036" lon="1.9217">
        <ele>223.16</ele>
        <time>2019-04-14T12:20:41Z</time>
      </trkpt>
      <trkpt lat="43.73035" lon="1.9221">
        <ele>224.12</ele>
        <time>2019-04-14T12:21:04Z</time>
      </trkpt>
      <trkpt lat="43.73034" lon="1.92244">
        <ele>225.57</ele>
        <time>2019-04-14T12:21:26Z</time>
      </trkpt>
      <trkpt lat="43.73034" lon="1.92278">
        <ele>227.49</ele>
        <time>2019-04-14T12:21:47Z</time>
      </trkpt>
      <trkpt lat="43.73033" lon="1.92308">
        <ele>230.37</ele>
        <time>2019-04-14T12:22:06Z</time>
      </trkpt>
      <trkpt lat="43.73035" lon="1.92343">
        <ele>232.78</ele>
        <time>2019-04-14T12:22:29Z</time>
      </trkpt>
      <trkpt lat="43.73038" lon="1.92376">
        <ele>235.66</ele>
        <time>2019-04-14T12:22:51Z</time>
      </trkpt>
      <trkpt lat="43.7304" lon="1.92403">
        <ele>238.54</ele>
        <time>2019-04-14T12:23:11Z</time>
      </trkpt>
      <trkpt lat="43.73043" lon="1.92433">
        <ele>241.43</ele>
        <time>2019-04-14T12:23:33Z</time>
      </trkpt>
      <trkpt lat="43.73043" lon="1.92457">
        <ele>243.35</ele>
        <time>2019-04-14T12:23:52Z</time>
      </trkpt>
      <trkpt lat="43.73042" lon="1.92483">
        <ele>245.75</ele>
        <time>2019-04-14T12:24:11Z</time>
      </trkpt>
      <trkpt lat="43.73041" lon="1.92507">
        <ele>248.16</ele>
        <time>2019-04-14T12:24:29Z</time>
      </trkpt>
      <trkpt lat="43.73037" lon="1.92537">
        <ele>251.04</ele>
        <time>2019-04-14T12:24:50Z</time>
      </trkpt>
      <trkpt lat="43.73029" lon="1.92568">
        <ele>252.96</ele>
        <time>2019-04-14T12:25:13Z</time>
      </trkpt>
      <trkpt lat="43.73017" lon="1.92597">
        <ele>255.37</ele>
        <time>2019-04-14T12:25:35Z</time>
      </trkpt>
      <trkpt lat="43.73008" lon="1.92626">
        <ele>258.25</ele>
        <time>2019-04-14T12:25:57Z</time>
      </trkpt>
      <trkpt lat="43.73006" lon="1.92651">
        <ele>260.65</ele>
        <time>2019-04-14T12:26:19Z</time>
      </trkpt>
      <trkpt lat="43.73006" lon="1.9266">
        <ele>261.14</ele>
        <time>2019-04-14T12:26:38Z</time>
      </trkpt>
      <trkpt lat="43.73007" lon="1.92691">
        <ele>262.1</ele>
        <time>2019-04-14T12:26:58Z</time>
      </trkpt>
      <trkpt lat="43.7301" lon="1.92681">
        <ele>262.58</ele>
        <time>2019-04-14T12:27:18Z</time>
      </trkpt>
      <trkpt lat="43.73011" lon="1.92664">
        <ele>259.21</ele>
        <time>2019-04-14T12:27:29Z</time>
      </trkpt>
      <trkpt lat="43.73014" lon="1.92661">
        <ele>260.65</ele>
        <time>2019-04-14T12:27:35Z</time>
      </trkpt>
      <trkpt lat="43.73029" lon="1.92687">
        <ele>263.06</ele>
        <time>2019-04-14T12:27:55Z</time>
      </trkpt>
      <trkpt lat="43.73041" lon="1.92709">
        <ele>266.42</ele>
        <time>2019-04-14T12:28:15Z</time>
      </trkpt>
      <trkpt lat="43.73052" lon="1.92728">
        <ele>267.38</ele>
        <time>2019-04-14T12:28:32Z</time>
      </trkpt>
      <trkpt lat="43.73067" lon="1.92751">
        <ele>268.83</ele>
        <time>2019-04-14T12:28:53Z</time>
      </trkpt>
      <trkpt lat="43.73069" lon="1.92756">
        <ele>269.79</ele>
        <time>2019-04-14T12:29:18Z</time>
      </trkpt>
      <trkpt lat="43.7308" lon="1.92765">
        <ele>268.83</ele>
        <time>2019-04-14T12:29:40Z</time>
      </trkpt>
      <trkpt lat="43.73089" lon="1.92774">
        <ele>270.27</ele>
        <time>2019-04-14T12:29:50Z</time>
      </trkpt>
      <trkpt lat="43.73093" lon="1.92806">
        <ele>271.23</ele>
        <time>2019-04-14T12:30:13Z</time>
      </trkpt>
      <trkpt lat="43.73099" lon="1.92828">
        <ele>272.19</ele>
        <time>2019-04-14T12:30:33Z</time>
      </trkpt>
      <trkpt lat="43.73119" lon="1.9283">
        <ele>272.19</ele>
        <time>2019-04-14T12:30:52Z</time>
      </trkpt>
      <trkpt lat="43.73135" lon="1.92819">
        <ele>270.75</ele>
        <time>2019-04-14T12:31:10Z</time>
      </trkpt>
      <trkpt lat="43.7316" lon="1.92805">
        <ele>270.75</ele>
        <time>2019-04-14T12:31:32Z</time>
      </trkpt>
      <trkpt lat="43.73189" lon="1.92798">
        <ele>270.75</ele>
        <time>2019-04-14T12:31:53Z</time>
      </trkpt>
      <trkpt lat="43.73194" lon="1.92798">
        <ele>272.19</ele>
        <time>2019-04-14T12:31:58Z</time>
      </trkpt>
      <trkpt lat="43.73205" lon="1.92801">
        <ele>272.19</ele>
        <time>2019-04-14T12:32:14Z</time>
      </trkpt>
      <trkpt lat="43.73206" lon="1.92802">
        <ele>272.19</ele>
        <time>2019-04-14T12:32:15Z</time>
      </trkpt>
      <trkpt lat="43.73219" lon="1.92813">
        <ele>273.63</ele>
        <time>2019-04-14T12:32:28Z</time>
      </trkpt>
      <trkpt lat="43.73229" lon="1.9284">
        <ele>275.07</ele>
        <time>2019-04-14T12:32:47Z</time>
      </trkpt>
      <trkpt lat="43.7324" lon="1.92866">
        <ele>276.52</ele>
        <time>2019-04-14T12:33:07Z</time>
      </trkpt>
      <trkpt lat="43.73252" lon="1.9289">
        <ele>276.52</ele>
        <time>2019-04-14T12:33:27Z</time>
      </trkpt>
      <trkpt lat="43.73265" lon="1.92925">
        <ele>275.56</ele>
        <time>2019-04-14T12:33:52Z</time>
      </trkpt>
      <trkpt lat="43.73265" lon="1.92926">
        <ele>275.56</ele>
        <time>2019-04-14T12:33:53Z</time>
      </trkpt>
      <trkpt lat="43.73266" lon="1.92934">
        <ele>277</ele>
        <time>2019-04-14T12:33:57Z</time>
      </trkpt>
      <trkpt lat="43.73269" lon="1.92942">
        <ele>275.07</ele>
        <time>2019-04-14T12:34:03Z</time>
      </trkpt>
      <trkpt lat="43.73276" lon="1.92975">
        <ele>276.52</ele>
        <time>2019-04-14T12:34:25Z</time>
      </trkpt>
      <trkpt lat="43.73281" lon="1.93022">
        <ele>275.56</ele>
        <time>2019-04-14T12:34:52Z</time>
      </trkpt>
      <trkpt lat="43.73285" lon="1.9306">
        <ele>275.56</ele>
        <time>2019-04-14T12:35:15Z</time>
      </trkpt>
      <trkpt lat="43.73288" lon="1.9308">
        <ele>276.52</ele>
        <time>2019-04-14T12:35:29Z</time>
      </trkpt>
      <trkpt lat="43.73307" lon="1.93107">
        <ele>277</ele>
        <time>2019-04-14T12:35:53Z</time>
      </trkpt>
      <trkpt lat="43.73325" lon="1.93121">
        <ele>277.48</ele>
        <time>2019-04-14T12:36:12Z</time>
      </trkpt>
      <trkpt lat="43.73346" lon="1.93149">
        <ele>276.04</ele>
        <time>2019-04-14T12:36:35Z</time>
      </trkpt>
      <trkpt lat="43.73359" lon="1.93175">
        <ele>275.56</ele>
        <time>2019-04-14T12:36:55Z</time>
      </trkpt>
      <trkpt lat="43.73373" lon="1.93208">
        <ele>277</ele>
        <time>2019-04-14T12:37:18Z</time>
      </trkpt>
      <trkpt lat="43.7338" lon="1.93235">
        <ele>277</ele>
        <time>2019-04-14T12:37:37Z</time>
      </trkpt>
      <trkpt lat="43.7339" lon="1.93273">
        <ele>277.48</ele>
        <time>2019-04-14T12:38:02Z</time>
      </trkpt>
      <trkpt lat="43.73396" lon="1.93309">
        <ele>277.48</ele>
        <time>2019-04-14T12:38:28Z</time>
      </trkpt>
      <trkpt lat="43.73398" lon="1.93345">
        <ele>276.52</ele>
        <time>2019-04-14T12:38:51Z</time>
      </trkpt>
      <trkpt lat="43.73399" lon="1.93378">
        <ele>276.52</ele>
        <time>2019-04-14T12:39:13Z</time>
      </trkpt>
      <trkpt lat="43.73399" lon="1.93414">
        <ele>277.48</ele>
        <time>2019-04-14T12:39:36Z</time>
      </trkpt>
      <trkpt lat="43.73399" lon="1.93443">
        <ele>277.96</ele>
        <time>2019-04-14T12:39:55Z</time>
      </trkpt>
      <trkpt lat="43.734" lon="1.9347">
        <ele>278.92</ele>
        <time>2019-04-14T12:40:14Z</time>
      </trkpt>
      <trkpt lat="43.73406" lon="1.93507">
        <ele>278.44</ele>
        <time>2019-04-14T12:40:35Z</time>
      </trkpt>
      <trkpt lat="43.73409" lon="1.93516">
        <ele>278.44</ele>
        <time>2019-04-14T12:40:55Z</time>
      </trkpt>
      <trkpt lat="43.73413" lon="1.93514">
        <ele>279.4</ele>
        <time>2019-04-14T12:41:20Z</time>
      </trkpt>
      <trkpt lat="43.73412" lon="1.93517">
        <ele>279.4</ele>
        <time>2019-04-14T12:41:47Z</time>
      </trkpt>
      <trkpt lat="43.73411" lon="1.93519">
        <ele>279.4</ele>
        <time>2019-04-14T12:42:17Z</time>
      </trkpt>
      <trkpt lat="43.73418" lon="1.93538">
        <ele>280.84</ele>
        <time>2019-04-14T12:42:34Z</time>
      </trkpt>
      <trkpt lat="43.73423" lon="1.93553">
        <ele>282.77</ele>
        <time>2019-04-14T12:42:49Z</time>
      </trkpt>
      <trkpt lat="43.73428" lon="1.9357">
        <ele>284.69</ele>
        <time>2019-04-14T12:43:03Z</time>
      </trkpt>
      <trkpt lat="43.7343" lon="1.93584">
        <ele>286.13</ele>
        <time>2019-04-14T12:43:15Z</time>
      </trkpt>
      <trkpt lat="43.7343" lon="1.9359">
        <ele>286.13</ele>
        <time>2019-04-14T12:43:20Z</time>
      </trkpt>
      <trkpt lat="43.73432" lon="1.93602">
        <ele>286.13</ele>
        <time>2019-04-14T12:43:28Z</time>
      </trkpt>
      <trkpt lat="43.7344" lon="1.93627">
        <ele>286.13</ele>
        <time>2019-04-14T12:43:46Z</time>
      </trkpt>
      <trkpt lat="43.73446" lon="1.93653">
        <ele>285.17</ele>
        <time>2019-04-14T12:44:04Z</time>
      </trkpt>
      <trkpt lat="43.73447" lon="1.93681">
        <ele>282.77</ele>
        <time>2019-04-14T12:44:22Z</time>
      </trkpt>
      <trkpt lat="43.7345" lon="1.93698">
        <ele>281.8</ele>
        <time>2019-04-14T12:44:33Z</time>
      </trkpt>
      <trkpt lat="43.73445" lon="1.93724">
        <ele>277.96</ele>
        <time>2019-04-14T12:44:51Z</time>
      </trkpt>
      <trkpt lat="43.73433" lon="1.93747">
        <ele>275.07</ele>
        <time>2019-04-14T12:45:10Z</time>
      </trkpt>
      <trkpt lat="43.73422" lon="1.93769">
        <ele>273.63</ele>
        <time>2019-04-14T12:45:28Z</time>
      </trkpt>
      <trkpt lat="43.73421" lon="1.93791">
        <ele>270.27</ele>
        <time>2019-04-14T12:45:42Z</time>
      </trkpt>
      <trkpt lat="43.73426" lon="1.93816">
        <ele>267.86</ele>
        <time>2019-04-14T12:45:59Z</time>
      </trkpt>
      <trkpt lat="43.73437" lon="1.93833">
        <ele>267.38</ele>
        <time>2019-04-14T12:46:14Z</time>
      </trkpt>
      <trkpt lat="43.7344" lon="1.93841">
        <ele>267.38</ele>
        <time>2019-04-14T12:46:21Z</time>
      </trkpt>
      <trkpt lat="43.73445" lon="1.93863">
        <ele>269.79</ele>
        <time>2019-04-14T12:46:37Z</time>
      </trkpt>
      <trkpt lat="43.73449" lon="1.93883">
        <ele>272.19</ele>
        <time>2019-04-14T12:46:52Z</time>
      </trkpt>
      <trkpt lat="43.73453" lon="1.93901">
        <ele>274.11</ele>
        <time>2019-04-14T12:47:09Z</time>
      </trkpt>
      <trkpt lat="43.73455" lon="1.93919">
        <ele>276.04</ele>
        <time>2019-04-14T12:47:24Z</time>
      </trkpt>
      <trkpt lat="43.73461" lon="1.93935">
        <ele>277</ele>
        <time>2019-04-14T12:47:37Z</time>
      </trkpt>
      <trkpt lat="43.73461" lon="1.93962">
        <ele>277.48</ele>
        <time>2019-04-14T12:47:54Z</time>
      </trkpt>
      <trkpt lat="43.73463" lon="1.93982">
        <ele>278.44</ele>
        <time>2019-04-14T12:48:10Z</time>
      </trkpt>
      <trkpt lat="43.73464" lon="1.94005">
        <ele>278.92</ele>
        <time>2019-04-14T12:48:26Z</time>
      </trkpt>
      <trkpt lat="43.73468" lon="1.94028">
        <ele>277.96</ele>
        <time>2019-04-14T12:48:40Z</time>
      </trkpt>
      <trkpt lat="43.73473" lon="1.94053">
        <ele>274.11</ele>
        <time>2019-04-14T12:48:56Z</time>
      </trkpt>
      <trkpt lat="43.73476" lon="1.94071">
        <ele>270.75</ele>
        <time>2019-04-14T12:49:09Z</time>
      </trkpt>
      <trkpt lat="43.73478" lon="1.94089">
        <ele>268.35</ele>
        <time>2019-04-14T12:49:23Z</time>
      </trkpt>
      <trkpt lat="43.73479" lon="1.94106">
        <ele>264.98</ele>
        <time>2019-04-14T12:49:37Z</time>
      </trkpt>
      <trkpt lat="43.73482" lon="1.94125">
        <ele>262.1</ele>
        <time>2019-04-14T12:49:50Z</time>
      </trkpt>
      <trkpt lat="43.73482" lon="1.94154">
        <ele>259.69</ele>
        <time>2019-04-14T12:50:08Z</time>
      </trkpt>
      <trkpt lat="43.73484" lon="1.94178">
        <ele>256.81</ele>
        <time>2019-04-14T12:50:24Z</time>
      </trkpt>
      <trkpt lat="43.73488" lon="1.94198">
        <ele>255.37</ele>
        <time>2019-04-14T12:50:39Z</time>
      </trkpt>
      <trkpt lat="43.73491" lon="1.94215">
        <ele>253.93</ele>
        <time>2019-04-14T12:50:55Z</time>
      </trkpt>
      <trkpt lat="43.73494" lon="1.9424">
        <ele>252.48</ele>
        <time>2019-04-14T12:51:13Z</time>
      </trkpt>
      <trkpt lat="43.73497" lon="1.94265">
        <ele>251.04</ele>
        <time>2019-04-14T12:51:30Z</time>
      </trkpt>
      <trkpt lat="43.73501" lon="1.94288">
        <ele>249.12</ele>
        <time>2019-04-14T12:51:51Z</time>
      </trkpt>
      <trkpt lat="43.73504" lon="1.94313">
        <ele>248.16</ele>
        <time>2019-04-14T12:52:09Z</time>
      </trkpt>
      <trkpt lat="43.73506" lon="1.94321">
        <ele>247.2</ele>
        <time>2019-04-14T12:52:28Z</time>
      </trkpt>
      <trkpt lat="43.7351" lon="1.94343">
        <ele>247.2</ele>
        <time>2019-04-14T12:52:48Z</time>
      </trkpt>
      <trkpt lat="43.73531" lon="1.9436">
        <ele>246.72</ele>
        <time>2019-04-14T12:53:11Z</time>
      </trkpt>
      <trkpt lat="43.73532" lon="1.94361">
        <ele>246.72</ele>
        <time>2019-04-14T12:53:13Z</time>
      </trkpt>
      <trkpt lat="43.73552" lon="1.94372">
        <ele>246.72</ele>
        <time>2019-04-14T12:53:32Z</time>
      </trkpt>
      <trkpt lat="43.73565" lon="1.94376">
        <ele>246.72</ele>
        <time>2019-04-14T12:53:44Z</time>
      </trkpt>
      <trkpt lat="43.73586" lon="1.94384">
        <ele>248.16</ele>
        <time>2019-04-14T12:54:04Z</time>
      </trkpt>
      <trkpt lat="43.73594" lon="1.9439">
        <ele>248.64</ele>
        <time>2019-04-14T12:54:19Z</time>
      </trkpt>
      <trkpt lat="43.7361" lon="1.94398">
        <ele>250.56</ele>
        <time>2019-04-14T12:54:35Z</time>
      </trkpt>
      <trkpt lat="43.73621" lon="1.94402">
        <ele>252.48</ele>
        <time>2019-04-14T12:54:50Z</time>
      </trkpt>
      <trkpt lat="43.73632" lon="1.9441">
        <ele>254.89</ele>
        <time>2019-04-14T12:55:05Z</time>
      </trkpt>
      <trkpt lat="43.73646" lon="1.94419">
        <ele>255.85</ele>
        <time>2019-04-14T12:55:22Z</time>
      </trkpt>
      <trkpt lat="43.73655" lon="1.94425">
        <ele>257.29</ele>
        <time>2019-04-14T12:55:35Z</time>
      </trkpt>
      <trkpt lat="43.73664" lon="1.94438">
        <ele>258.25</ele>
        <time>2019-04-14T12:55:52Z</time>
      </trkpt>
      <trkpt lat="43.73669" lon="1.94449">
        <ele>258.25</ele>
        <time>2019-04-14T12:56:10Z</time>
      </trkpt>
      <trkpt lat="43.73681" lon="1.94473">
        <ele>258.73</ele>
        <time>2019-04-14T12:56:27Z</time>
      </trkpt>
      <trkpt lat="43.7369" lon="1.94491">
        <ele>261.14</ele>
        <time>2019-04-14T12:56:42Z</time>
      </trkpt>
      <trkpt lat="43.73702" lon="1.94504">
        <ele>264.5</ele>
        <time>2019-04-14T12:57:00Z</time>
      </trkpt>
      <trkpt lat="43.73715" lon="1.94513">
        <ele>267.38</ele>
        <time>2019-04-14T12:57:19Z</time>
      </trkpt>
      <trkpt lat="43.73727" lon="1.94521">
        <ele>270.27</ele>
        <time>2019-04-14T12:57:36Z</time>
      </trkpt>
      <trkpt lat="43.73737" lon="1.94525">
        <ele>272.67</ele>
        <time>2019-04-14T12:57:52Z</time>
      </trkpt>
      <trkpt lat="43.7375" lon="1.94528">
        <ele>275.56</ele>
        <time>2019-04-14T12:58:12Z</time>
      </trkpt>
      <trkpt lat="43.73761" lon="1.94536">
        <ele>276.04</ele>
        <time>2019-04-14T12:58:30Z</time>
      </trkpt>
      <trkpt lat="43.73777" lon="1.94542">
        <ele>275.07</ele>
        <time>2019-04-14T12:58:48Z</time>
      </trkpt>
      <trkpt lat="43.73789" lon="1.94545">
        <ele>273.15</ele>
        <time>2019-04-14T12:59:08Z</time>
      </trkpt>
      <trkpt lat="43.73792" lon="1.94542">
        <ele>272.67</ele>
        <time>2019-04-14T12:59:38Z</time>
      </trkpt>
      <trkpt lat="43.73796" lon="1.94548">
        <ele>272.19</ele>
        <time>2019-04-14T13:00:01Z</time>
      </trkpt>
      <trkpt lat="43.73807" lon="1.94556">
        <ele>269.31</ele>
        <time>2019-04-14T13:00:17Z</time>
      </trkpt>
      <trkpt lat="43.7381" lon="1.94572">
        <ele>265.94</ele>
        <time>2019-04-14T13:00:32Z</time>
      </trkpt>
      <trkpt lat="43.73814" lon="1.94586">
        <ele>262.58</ele>
        <time>2019-04-14T13:00:47Z</time>
      </trkpt>
      <trkpt lat="43.73818" lon="1.94598">
        <ele>261.14</ele>
        <time>2019-04-14T13:00:57Z</time>
      </trkpt>
      <trkpt lat="43.73828" lon="1.94622">
        <ele>258.73</ele>
        <time>2019-04-14T13:01:15Z</time>
      </trkpt>
      <trkpt lat="43.7384" lon="1.94633">
        <ele>256.81</ele>
        <time>2019-04-14T13:01:33Z</time>
      </trkpt>
      <trkpt lat="43.73851" lon="1.94639">
        <ele>256.81</ele>
        <time>2019-04-14T13:01:51Z</time>
      </trkpt>
      <trkpt lat="43.73866" lon="1.94649">
        <ele>258.73</ele>
        <time>2019-04-14T13:02:11Z</time>
      </trkpt>
      <trkpt lat="43.73876" lon="1.94654">
        <ele>257.77</ele>
        <time>2019-04-14T13:02:21Z</time>
      </trkpt>
      <trkpt lat="43.73895" lon="1.94655">
        <ele>257.29</ele>
        <time>2019-04-14T13:02:40Z</time>
      </trkpt>
      <trkpt lat="43.73918" lon="1.94661">
        <ele>256.33</ele>
        <time>2019-04-14T13:03:00Z</time>
      </trkpt>
      <trkpt lat="43.7392" lon="1.94661">
        <ele>255.85</ele>
        <time>2019-04-14T13:03:02Z</time>
      </trkpt>
      <trkpt lat="43.73941" lon="1.94677">
        <ele>255.37</ele>
        <time>2019-04-14T13:03:23Z</time>
      </trkpt>
      <trkpt lat="43.73955" lon="1.94691">
        <ele>255.37</ele>
        <time>2019-04-14T13:03:39Z</time>
      </trkpt>
      <trkpt lat="43.73967" lon="1.94708">
        <ele>255.37</ele>
        <time>2019-04-14T13:03:58Z</time>
      </trkpt>
      <trkpt lat="43.73974" lon="1.94717">
        <ele>254.41</ele>
        <time>2019-04-14T13:04:14Z</time>
      </trkpt>
      <trkpt lat="43.73976" lon="1.94717">
        <ele>253.93</ele>
        <time>2019-04-14T13:04:36Z</time>
      </trkpt>
      <trkpt lat="43.73978" lon="1.94716">
        <ele>253.93</ele>
        <time>2019-04-14T13:04:56Z</time>
      </trkpt>
      <trkpt lat="43.73992" lon="1.94722">
        <ele>252.48</ele>
        <time>2019-04-14T13:05:20Z</time>
      </trkpt>
      <trkpt lat="43.73998" lon="1.94722">
        <ele>252.48</ele>
        <time>2019-04-14T13:05:25Z</time>
      </trkpt>
      <trkpt lat="43.74024" lon="1.94726">
        <ele>249.6</ele>
        <time>2019-04-14T13:05:49Z</time>
      </trkpt>
      <trkpt lat="43.74047" lon="1.94729">
        <ele>246.72</ele>
        <time>2019-04-14T13:06:10Z</time>
      </trkpt>
      <trkpt lat="43.74071" lon="1.94733">
        <ele>245.27</ele>
        <time>2019-04-14T13:06:32Z</time>
      </trkpt>
      <trkpt lat="43.74094" lon="1.94731">
        <ele>244.31</ele>
        <time>2019-04-14T13:06:52Z</time>
      </trkpt>
      <trkpt lat="43.74118" lon="1.94729">
        <ele>242.39</ele>
        <time>2019-04-14T13:07:13Z</time>
      </trkpt>
      <trkpt lat="43.7414" lon="1.94724">
        <ele>241.91</ele>
        <time>2019-04-14T13:07:31Z</time>
      </trkpt>
      <trkpt lat="43.74148" lon="1.94722">
        <ele>243.35</ele>
        <time>2019-04-14T13:07:39Z</time>
      </trkpt>
      <trkpt lat="43.74171" lon="1.94712">
        <ele>241.43</ele>
        <time>2019-04-14T13:07:58Z</time>
      </trkpt>
      <trkpt lat="43.74187" lon="1.94704">
        <ele>243.83</ele>
        <time>2019-04-14T13:08:12Z</time>
      </trkpt>
      <trkpt lat="43.74209" lon="1.94688">
        <ele>242.39</ele>
        <time>2019-04-14T13:08:34Z</time>
      </trkpt>
      <trkpt lat="43.74228" lon="1.94674">
        <ele>240.95</ele>
        <time>2019-04-14T13:08:53Z</time>
      </trkpt>
      <trkpt lat="43.74249" lon="1.94661">
        <ele>239.02</ele>
        <time>2019-04-14T13:09:14Z</time>
      </trkpt>
      <trkpt lat="43.74269" lon="1.94644">
        <ele>238.06</ele>
        <time>2019-04-14T13:09:34Z</time>
      </trkpt>
      <trkpt lat="43.74288" lon="1.9463">
        <ele>238.06</ele>
        <time>2019-04-14T13:09:52Z</time>
      </trkpt>
      <trkpt lat="43.74298" lon="1.9462">
        <ele>239.51</ele>
        <time>2019-04-14T13:10:03Z</time>
      </trkpt>
      <trkpt lat="43.74311" lon="1.94605">
        <ele>239.51</ele>
        <time>2019-04-14T13:10:19Z</time>
      </trkpt>
      <trkpt lat="43.74325" lon="1.94582">
        <ele>240.47</ele>
        <time>2019-04-14T13:10:38Z</time>
      </trkpt>
      <trkpt lat="43.74334" lon="1.9455">
        <ele>241.43</ele>
        <time>2019-04-14T13:11:01Z</time>
      </trkpt>
      <trkpt lat="43.74341" lon="1.94525">
        <ele>241.43</ele>
        <time>2019-04-14T13:11:18Z</time>
      </trkpt>
      <trkpt lat="43.74345" lon="1.94512">
        <ele>240.47</ele>
        <time>2019-04-14T13:11:27Z</time>
      </trkpt>
      <trkpt lat="43.74347" lon="1.94506">
        <ele>241.91</ele>
        <time>2019-04-14T13:11:31Z</time>
      </trkpt>
      <trkpt lat="43.7435" lon="1.94492">
        <ele>240.95</ele>
        <time>2019-04-14T13:11:40Z</time>
      </trkpt>
      <trkpt lat="43.74351" lon="1.94467">
        <ele>240.95</ele>
        <time>2019-04-14T13:11:56Z</time>
      </trkpt>
      <trkpt lat="43.7435" lon="1.94464">
        <ele>242.87</ele>
        <time>2019-04-14T13:12:01Z</time>
      </trkpt>
      <trkpt lat="43.7435" lon="1.9446">
        <ele>241.91</ele>
        <time>2019-04-14T13:12:05Z</time>
      </trkpt>
      <trkpt lat="43.74347" lon="1.94434">
        <ele>242.87</ele>
        <time>2019-04-14T13:12:21Z</time>
      </trkpt>
      <trkpt lat="43.74346" lon="1.9442">
        <ele>240.95</ele>
        <time>2019-04-14T13:12:29Z</time>
      </trkpt>
      <trkpt lat="43.74345" lon="1.94387">
        <ele>239.51</ele>
        <time>2019-04-14T13:12:49Z</time>
      </trkpt>
      <trkpt lat="43.74346" lon="1.94373">
        <ele>239.51</ele>
        <time>2019-04-14T13:12:58Z</time>
      </trkpt>
      <trkpt lat="43.74347" lon="1.94346">
        <ele>238.54</ele>
        <time>2019-04-14T13:13:15Z</time>
      </trkpt>
      <trkpt lat="43.74345" lon="1.94339">
        <ele>239.51</ele>
        <time>2019-04-14T13:13:20Z</time>
      </trkpt>
      <trkpt lat="43.74342" lon="1.94312">
        <ele>240.95</ele>
        <time>2019-04-14T13:13:37Z</time>
      </trkpt>
      <trkpt lat="43.74339" lon="1.94288">
        <ele>241.43</ele>
        <time>2019-04-14T13:13:54Z</time>
      </trkpt>
      <trkpt lat="43.74339" lon="1.94269">
        <ele>240.95</ele>
        <time>2019-04-14T13:14:10Z</time>
      </trkpt>
      <trkpt lat="43.74345" lon="1.94247">
        <ele>239.51</ele>
        <time>2019-04-14T13:14:25Z</time>
      </trkpt>
      <trkpt lat="43.74356" lon="1.94218">
        <ele>238.06</ele>
        <time>2019-04-14T13:14:43Z</time>
      </trkpt>
      <trkpt lat="43.74366" lon="1.94198">
        <ele>236.62</ele>
        <time>2019-04-14T13:14:59Z</time>
      </trkpt>
      <trkpt lat="43.7437" lon="1.94191">
        <ele>235.66</ele>
        <time>2019-04-14T13:15:05Z</time>
      </trkpt>
      <trkpt lat="43.74385" lon="1.94175">
        <ele>232.3</ele>
        <time>2019-04-14T13:15:22Z</time>
      </trkpt>
      <trkpt lat="43.744" lon="1.94161">
        <ele>230.37</ele>
        <time>2019-04-14T13:15:38Z</time>
      </trkpt>
      <trkpt lat="43.74419" lon="1.94143">
        <ele>228.45</ele>
        <time>2019-04-14T13:15:56Z</time>
      </trkpt>
      <trkpt lat="43.74434" lon="1.94134">
        <ele>227.97</ele>
        <time>2019-04-14T13:16:12Z</time>
      </trkpt>
      <trkpt lat="43.74451" lon="1.94125">
        <ele>226.53</ele>
        <time>2019-04-14T13:16:27Z</time>
      </trkpt>
      <trkpt lat="43.74455" lon="1.94124">
        <ele>226.05</ele>
        <time>2019-04-14T13:16:31Z</time>
      </trkpt>
      <trkpt lat="43.74473" lon="1.94117">
        <ele>225.09</ele>
        <time>2019-04-14T13:16:47Z</time>
      </trkpt>
      <trkpt lat="43.74493" lon="1.94107">
        <ele>222.68</ele>
        <time>2019-04-14T13:17:05Z</time>
      </trkpt>
      <trkpt lat="43.74511" lon="1.94101">
        <ele>221.72</ele>
        <time>2019-04-14T13:17:22Z</time>
      </trkpt>
      <trkpt lat="43.74507" lon="1.94124">
        <ele>221.72</ele>
        <time>2019-04-14T13:17:38Z</time>
      </trkpt>
      <trkpt lat="43.74506" lon="1.94127">
        <ele>221.72</ele>
        <time>2019-04-14T13:17:40Z</time>
      </trkpt>
      <trkpt lat="43.74504" lon="1.9414">
        <ele>221.72</ele>
        <time>2019-04-14T13:17:49Z</time>
      </trkpt>
      <trkpt lat="43.74507" lon="1.9415">
        <ele>221.72</ele>
        <time>2019-04-14T13:17:55Z</time>
      </trkpt>
      <trkpt lat="43.74519" lon="1.94163">
        <ele>220.76</ele>
        <time>2019-04-14T13:18:08Z</time>
      </trkpt>
      <trkpt lat="43.74528" lon="1.94181">
        <ele>220.28</ele>
        <time>2019-04-14T13:18:23Z</time>
      </trkpt>
      <trkpt lat="43.74538" lon="1.94189">
        <ele>219.8</ele>
        <time>2019-04-14T13:18:33Z</time>
      </trkpt>
      <trkpt lat="43.7456" lon="1.94204">
        <ele>218.36</ele>
        <time>2019-04-14T13:18:52Z</time>
      </trkpt>
      <trkpt lat="43.74578" lon="1.94212">
        <ele>216.43</ele>
        <time>2019-04-14T13:19:10Z</time>
      </trkpt>
      <trkpt lat="43.74591" lon="1.94219">
        <ele>214.99</ele>
        <time>2019-04-14T13:19:26Z</time>
      </trkpt>
      <trkpt lat="43.74601" lon="1.94229">
        <ele>214.03</ele>
        <time>2019-04-14T13:19:44Z</time>
      </trkpt>
      <trkpt lat="43.74606" lon="1.94228">
        <ele>213.07</ele>
        <time>2019-04-14T13:19:49Z</time>
      </trkpt>
      <trkpt lat="43.74624" lon="1.94203">
        <ele>211.15</ele>
        <time>2019-04-14T13:20:10Z</time>
      </trkpt>
      <trkpt lat="43.7464" lon="1.94182">
        <ele>210.19</ele>
        <time>2019-04-14T13:20:27Z</time>
      </trkpt>
      <trkpt lat="43.74659" lon="1.94169">
        <ele>209.22</ele>
        <time>2019-04-14T13:20:46Z</time>
      </trkpt>
      <trkpt lat="43.74669" lon="1.94188">
        <ele>208.74</ele>
        <time>2019-04-14T13:21:04Z</time>
      </trkpt>
      <trkpt lat="43.74671" lon="1.94201">
        <ele>208.26</ele>
        <time>2019-04-14T13:21:18Z</time>
      </trkpt>
      <trkpt lat="43.7468" lon="1.94211">
        <ele>208.26</ele>
        <time>2019-04-14T13:21:29Z</time>
      </trkpt>
      <trkpt lat="43.74685" lon="1.94205">
        <ele>207.3</ele>
        <time>2019-04-14T13:21:36Z</time>
      </trkpt>
      <trkpt lat="43.74688" lon="1.94171">
        <ele>206.34</ele>
        <time>2019-04-14T13:21:56Z</time>
      </trkpt>
      <trkpt lat="43.747" lon="1.94149">
        <ele>206.34</ele>
        <time>2019-04-14T13:22:13Z</time>
      </trkpt>
      <trkpt lat="43.74715" lon="1.94126">
        <ele>204.9</ele>
        <time>2019-04-14T13:22:31Z</time>
      </trkpt>
      <trkpt lat="43.74731" lon="1.94109">
        <ele>204.9</ele>
        <time>2019-04-14T13:22:49Z</time>
      </trkpt>
      <trkpt lat="43.74752" lon="1.94096">
        <ele>203.94</ele>
        <time>2019-04-14T13:23:09Z</time>
      </trkpt>
      <trkpt lat="43.74769" lon="1.94077">
        <ele>203.94</ele>
        <time>2019-04-14T13:23:30Z</time>
      </trkpt>
      <trkpt lat="43.74782" lon="1.94054">
        <ele>203.46</ele>
        <time>2019-04-14T13:23:51Z</time>
      </trkpt>
      <trkpt lat="43.74795" lon="1.94038">
        <ele>203.46</ele>
        <time>2019-04-14T13:24:06Z</time>
      </trkpt>
      <trkpt lat="43.7481" lon="1.94012">
        <ele>202.01</ele>
        <time>2019-04-14T13:24:27Z</time>
      </trkpt>
      <trkpt lat="43.74828" lon="1.93989">
        <ele>201.05</ele>
        <time>2019-04-14T13:24:47Z</time>
      </trkpt>
      <trkpt lat="43.74841" lon="1.93971">
        <ele>200.09</ele>
        <time>2019-04-14T13:25:05Z</time>
      </trkpt>
      <trkpt lat="43.74852" lon="1.93954">
        <ele>199.13</ele>
        <time>2019-04-14T13:25:20Z</time>
      </trkpt>
      <trkpt lat="43.74869" lon="1.93934">
        <ele>198.17</ele>
        <time>2019-04-14T13:25:38Z</time>
      </trkpt>
      <trkpt lat="43.74873" lon="1.93929">
        <ele>197.69</ele>
        <time>2019-04-14T13:25:44Z</time>
      </trkpt>
      <trkpt lat="43.74888" lon="1.93901">
        <ele>196.25</ele>
        <time>2019-04-14T13:26:00Z</time>
      </trkpt>
      <trkpt lat="43.74902" lon="1.93881">
        <ele>195.28</ele>
        <time>2019-04-14T13:26:17Z</time>
      </trkpt>
      <trkpt lat="43.74915" lon="1.93864">
        <ele>193.84</ele>
        <time>2019-04-14T13:26:33Z</time>
      </trkpt>
      <trkpt lat="43.74925" lon="1.93849">
        <ele>193.84</ele>
        <time>2019-04-14T13:26:45Z</time>
      </trkpt>
      <trkpt lat="43.74942" lon="1.93829">
        <ele>191.44</ele>
        <time>2019-04-14T13:27:02Z</time>
      </trkpt>
      <trkpt lat="43.74957" lon="1.93806">
        <ele>190.48</ele>
        <time>2019-04-14T13:27:20Z</time>
      </trkpt>
      <trkpt lat="43.74969" lon="1.93787">
        <ele>189.04</ele>
        <time>2019-04-14T13:27:35Z</time>
      </trkpt>
      <trkpt lat="43.74969" lon="1.93787">
        <ele>189.04</ele>
        <time>2019-04-14T13:27:36Z</time>
      </trkpt>
      <trkpt lat="43.7498" lon="1.9377">
        <ele>187.59</ele>
        <time>2019-04-14T13:27:49Z</time>
      </trkpt>
      <trkpt lat="43.74992" lon="1.9375">
        <ele>185.19</ele>
        <time>2019-04-14T13:28:05Z</time>
      </trkpt>
      <trkpt lat="43.74998" lon="1.93729">
        <ele>183.75</ele>
        <time>2019-04-14T13:28:18Z</time>
      </trkpt>
      <trkpt lat="43.75009" lon="1.93702">
        <ele>181.35</ele>
        <time>2019-04-14T13:28:35Z</time>
      </trkpt>
      <trkpt lat="43.75017" lon="1.9368">
        <ele>179.42</ele>
        <time>2019-04-14T13:28:50Z</time>
      </trkpt>
      <trkpt lat="43.75021" lon="1.93667">
        <ele>177.02</ele>
        <time>2019-04-14T13:29:02Z</time>
      </trkpt>
      <trkpt lat="43.75027" lon="1.93643">
        <ele>174.14</ele>
        <time>2019-04-14T13:29:17Z</time>
      </trkpt>
      <trkpt lat="43.75038" lon="1.9362">
        <ele>172.21</ele>
        <time>2019-04-14T13:29:33Z</time>
      </trkpt>
      <trkpt lat="43.75042" lon="1.93613">
        <ele>171.25</ele>
        <time>2019-04-14T13:29:40Z</time>
      </trkpt>
      <trkpt lat="43.75048" lon="1.93601">
        <ele>169.81</ele>
        <time>2019-04-14T13:29:48Z</time>
      </trkpt>
      <trkpt lat="43.75065" lon="1.93577">
        <ele>166.93</ele>
        <time>2019-04-14T13:30:05Z</time>
      </trkpt>
      <trkpt lat="43.75065" lon="1.93574">
        <ele>166.45</ele>
        <time>2019-04-14T13:30:07Z</time>
      </trkpt>
      <trkpt lat="43.75055" lon="1.93559">
        <ele>164.52</ele>
        <time>2019-04-14T13:30:22Z</time>
      </trkpt>
      <trkpt lat="43.75037" lon="1.93561">
        <ele>163.08</ele>
        <time>2019-04-14T13:30:39Z</time>
      </trkpt>
      <trkpt lat="43.7503" lon="1.93552">
        <ele>162.6</ele>
        <time>2019-04-14T13:30:59Z</time>
      </trkpt>
      <trkpt lat="43.7503" lon="1.93544">
        <ele>162.6</ele>
        <time>2019-04-14T13:31:16Z</time>
      </trkpt>
      <trkpt lat="43.7504" lon="1.93533">
        <ele>164.52</ele>
        <time>2019-04-14T13:31:30Z</time>
      </trkpt>
      <trkpt lat="43.7505" lon="1.93524">
        <ele>165.48</ele>
        <time>2019-04-14T13:31:43Z</time>
      </trkpt>
      <trkpt lat="43.75056" lon="1.93518">
        <ele>165.96</ele>
        <time>2019-04-14T13:31:56Z</time>
      </trkpt>
      <trkpt lat="43.75061" lon="1.93514">
        <ele>165.96</ele>
        <time>2019-04-14T13:32:02Z</time>
      </trkpt>
      <trkpt lat="43.75073" lon="1.93502">
        <ele>166.45</ele>
        <time>2019-04-14T13:32:16Z</time>
      </trkpt>
      <trkpt lat="43.75089" lon="1.93486">
        <ele>167.41</ele>
        <time>2019-04-14T13:32:34Z</time>
      </trkpt>
      <trkpt lat="43.751" lon="1.93477">
        <ele>167.89</ele>
        <time>2019-04-14T13:32:45Z</time>
      </trkpt>
      <trkpt lat="43.75103" lon="1.93473">
        <ele>167.89</ele>
        <time>2019-04-14T13:32:49Z</time>
      </trkpt>
      <trkpt lat="43.75114" lon="1.93463">
        <ele>166.45</ele>
        <time>2019-04-14T13:33:00Z</time>
      </trkpt>
      <trkpt lat="43.75136" lon="1.93445">
        <ele>165.48</ele>
        <time>2019-04-14T13:33:21Z</time>
      </trkpt>
      <trkpt lat="43.75152" lon="1.93432">
        <ele>164.52</ele>
        <time>2019-04-14T13:33:41Z</time>
      </trkpt>
      <trkpt lat="43.75168" lon="1.93418">
        <ele>163.56</ele>
        <time>2019-04-14T13:34:00Z</time>
      </trkpt>
      <trkpt lat="43.75185" lon="1.93402">
        <ele>162.6</ele>
        <time>2019-04-14T13:34:18Z</time>
      </trkpt>
      <trkpt lat="43.75202" lon="1.93383">
        <ele>161.64</ele>
        <time>2019-04-14T13:34:36Z</time>
      </trkpt>
      <trkpt lat="43.75218" lon="1.93366">
        <ele>160.68</ele>
        <time>2019-04-14T13:34:54Z</time>
      </trkpt>
      <trkpt lat="43.75229" lon="1.93343">
        <ele>158.27</ele>
        <time>2019-04-14T13:35:10Z</time>
      </trkpt>
      <trkpt lat="43.75232" lon="1.93315">
        <ele>157.31</ele>
        <time>2019-04-14T13:35:26Z</time>
      </trkpt>
      <trkpt lat="43.75233" lon="1.93304">
        <ele>157.31</ele>
        <time>2019-04-14T13:35:32Z</time>
      </trkpt>
      <trkpt lat="43.75233" lon="1.93294">
        <ele>157.31</ele>
        <time>2019-04-14T13:35:38Z</time>
      </trkpt>
      <trkpt lat="43.75235" lon="1.93268">
        <ele>157.31</ele>
        <time>2019-04-14T13:35:53Z</time>
      </trkpt>
      <trkpt lat="43.75234" lon="1.93261">
        <ele>157.31</ele>
        <time>2019-04-14T13:36:10Z</time>
      </trkpt>
      <trkpt lat="43.75235" lon="1.93265">
        <ele>157.31</ele>
        <time>2019-04-14T13:36:27Z</time>
      </trkpt>
      <trkpt lat="43.75234" lon="1.93246">
        <ele>156.83</ele>
        <time>2019-04-14T13:36:45Z</time>
      </trkpt>
      <trkpt lat="43.75237" lon="1.93226">
        <ele>155.87</ele>
        <time>2019-04-14T13:37:01Z</time>
      </trkpt>
      <trkpt lat="43.75234" lon="1.93221">
        <ele>155.87</ele>
        <time>2019-04-14T13:37:15Z</time>
      </trkpt>
      <trkpt lat="43.75237" lon="1.93214">
        <ele>155.87</ele>
        <time>2019-04-14T13:37:33Z</time>
      </trkpt>
      <trkpt lat="43.75239" lon="1.93181">
        <ele>154.91</ele>
        <time>2019-04-14T13:37:52Z</time>
      </trkpt>
      <trkpt lat="43.75238" lon="1.93177">
        <ele>156.35</ele>
        <time>2019-04-14T13:37:59Z</time>
      </trkpt>
      <trkpt lat="43.7524" lon="1.93158">
        <ele>154.43</ele>
        <time>2019-04-14T13:38:19Z</time>
      </trkpt>
      <trkpt lat="43.75244" lon="1.93135">
        <ele>154.43</ele>
        <time>2019-04-14T13:38:34Z</time>
      </trkpt>
      <trkpt lat="43.75245" lon="1.93106">
        <ele>154.43</ele>
        <time>2019-04-14T13:38:55Z</time>
      </trkpt>
      <trkpt lat="43.7525" lon="1.93072">
        <ele>153.95</ele>
        <time>2019-04-14T13:39:15Z</time>
      </trkpt>
      <trkpt lat="43.75252" lon="1.93038">
        <ele>153.95</ele>
        <time>2019-04-14T13:39:35Z</time>
      </trkpt>
      <trkpt lat="43.75246" lon="1.9301">
        <ele>153.47</ele>
        <time>2019-04-14T13:39:53Z</time>
      </trkpt>
      <trkpt lat="43.75241" lon="1.92997">
        <ele>154.91</ele>
        <time>2019-04-14T13:40:02Z</time>
      </trkpt>
      <trkpt lat="43.75236" lon="1.92992">
        <ele>155.39</ele>
        <time>2019-04-14T13:40:18Z</time>
      </trkpt>
      <trkpt lat="43.75222" lon="1.93003">
        <ele>156.35</ele>
        <time>2019-04-14T13:40:37Z</time>
      </trkpt>
      <trkpt lat="43.75213" lon="1.9301">
        <ele>156.83</ele>
        <time>2019-04-14T13:40:47Z</time>
      </trkpt>
      <trkpt lat="43.75197" lon="1.93023">
        <ele>157.31</ele>
        <time>2019-04-14T13:41:01Z</time>
      </trkpt>
      <trkpt lat="43.75187" lon="1.93029">
        <ele>157.79</ele>
        <time>2019-04-14T13:41:12Z</time>
      </trkpt>
      <trkpt lat="43.75171" lon="1.93038">
        <ele>159.72</ele>
        <time>2019-04-14T13:41:27Z</time>
      </trkpt>
      <trkpt lat="43.75151" lon="1.93046">
        <ele>160.68</ele>
        <time>2019-04-14T13:41:43Z</time>
      </trkpt>
      <trkpt lat="43.75132" lon="1.93054">
        <ele>161.64</ele>
        <time>2019-04-14T13:42:02Z</time>
      </trkpt>
      <trkpt lat="43.75113" lon="1.9306">
        <ele>163.56</ele>
        <time>2019-04-14T13:42:26Z</time>
      </trkpt>
      <trkpt lat="43.75092" lon="1.93069">
        <ele>165.48</ele>
        <time>2019-04-14T13:42:48Z</time>
      </trkpt>
      <trkpt lat="43.75075" lon="1.93081">
        <ele>167.41</ele>
        <time>2019-04-14T13:43:04Z</time>
      </trkpt>
      <trkpt lat="43.75066" lon="1.93084">
        <ele>168.37</ele>
        <time>2019-04-14T13:43:15Z</time>
      </trkpt>
      <trkpt lat="43.75055" lon="1.93089">
        <ele>169.81</ele>
        <time>2019-04-14T13:43:29Z</time>
      </trkpt>
      <trkpt lat="43.75049" lon="1.9309">
        <ele>169.81</ele>
        <time>2019-04-14T13:43:33Z</time>
      </trkpt>
      <trkpt lat="43.7504" lon="1.93089">
        <ele>171.25</ele>
        <time>2019-04-14T13:43:42Z</time>
      </trkpt>
      <trkpt lat="43.75023" lon="1.93084">
        <ele>173.66</ele>
        <time>2019-04-14T13:43:59Z</time>
      </trkpt>
      <trkpt lat="43.75009" lon="1.93081">
        <ele>175.1</ele>
        <time>2019-04-14T13:44:16Z</time>
      </trkpt>
      <trkpt lat="43.74995" lon="1.93076">
        <ele>177.5</ele>
        <time>2019-04-14T13:44:34Z</time>
      </trkpt>
      <trkpt lat="43.74978" lon="1.93069">
        <ele>179.42</ele>
        <time>2019-04-14T13:44:51Z</time>
      </trkpt>
      <trkpt lat="43.74962" lon="1.93065">
        <ele>182.31</ele>
        <time>2019-04-14T13:45:06Z</time>
      </trkpt>
      <trkpt lat="43.74952" lon="1.9305">
        <ele>183.75</ele>
        <time>2019-04-14T13:45:23Z</time>
      </trkpt>
      <trkpt lat="43.74941" lon="1.93036">
        <ele>186.15</ele>
        <time>2019-04-14T13:45:40Z</time>
      </trkpt>
      <trkpt lat="43.74926" lon="1.93034">
        <ele>187.59</ele>
        <time>2019-04-14T13:45:56Z</time>
      </trkpt>
      <trkpt lat="43.74908" lon="1.93049">
        <ele>189.04</ele>
        <time>2019-04-14T13:46:12Z</time>
      </trkpt>
      <trkpt lat="43.749" lon="1.93055">
        <ele>190</ele>
        <time>2019-04-14T13:46:25Z</time>
      </trkpt>
      <trkpt lat="43.74888" lon="1.93065">
        <ele>190.96</ele>
        <time>2019-04-14T13:46:39Z</time>
      </trkpt>
      <trkpt lat="43.74888" lon="1.93066">
        <ele>190.96</ele>
        <time>2019-04-14T13:46:40Z</time>
      </trkpt>
      <trkpt lat="43.74884" lon="1.93068">
        <ele>191.44</ele>
        <time>2019-04-14T13:46:44Z</time>
      </trkpt>
      <trkpt lat="43.74864" lon="1.93086">
        <ele>192.4</ele>
        <time>2019-04-14T13:46:59Z</time>
      </trkpt>
      <trkpt lat="43.74851" lon="1.931">
        <ele>192.88</ele>
        <time>2019-04-14T13:47:14Z</time>
      </trkpt>
      <trkpt lat="43.74839" lon="1.9312">
        <ele>193.36</ele>
        <time>2019-04-14T13:47:30Z</time>
      </trkpt>
      <trkpt lat="43.74835" lon="1.93131">
        <ele>193.36</ele>
        <time>2019-04-14T13:47:39Z</time>
      </trkpt>
      <trkpt lat="43.74825" lon="1.9315">
        <ele>193.84</ele>
        <time>2019-04-14T13:47:53Z</time>
      </trkpt>
      <trkpt lat="43.74823" lon="1.9317">
        <ele>194.32</ele>
        <time>2019-04-14T13:48:08Z</time>
      </trkpt>
      <trkpt lat="43.74825" lon="1.93184">
        <ele>194.32</ele>
        <time>2019-04-14T13:48:16Z</time>
      </trkpt>
      <trkpt lat="43.74825" lon="1.93188">
        <ele>194.32</ele>
        <time>2019-04-14T13:48:19Z</time>
      </trkpt>
      <trkpt lat="43.74825" lon="1.93195">
        <ele>194.32</ele>
        <time>2019-04-14T13:48:22Z</time>
      </trkpt>
      <trkpt lat="43.74825" lon="1.932">
        <ele>194.32</ele>
        <time>2019-04-14T13:48:25Z</time>
      </trkpt>
      <trkpt lat="43.74826" lon="1.93223">
        <ele>194.32</ele>
        <time>2019-04-14T13:48:40Z</time>
      </trkpt>
      <trkpt lat="43.74825" lon="1.9324">
        <ele>194.32</ele>
        <time>2019-04-14T13:48:52Z</time>
      </trkpt>
      <trkpt lat="43.74818" lon="1.93245">
        <ele>194.8</ele>
        <time>2019-04-14T13:49:03Z</time>
      </trkpt>
      <trkpt lat="43.74803" lon="1.93258">
        <ele>196.73</ele>
        <time>2019-04-14T13:49:18Z</time>
      </trkpt>
      <trkpt lat="43.7479" lon="1.93272">
        <ele>197.69</ele>
        <time>2019-04-14T13:49:31Z</time>
      </trkpt>
      <trkpt lat="43.74788" lon="1.93273">
        <ele>198.17</ele>
        <time>2019-04-14T13:49:35Z</time>
      </trkpt>
      <trkpt lat="43.74772" lon="1.93285">
        <ele>199.61</ele>
        <time>2019-04-14T13:49:51Z</time>
      </trkpt>
      <trkpt lat="43.74757" lon="1.93293">
        <ele>201.05</ele>
        <time>2019-04-14T13:50:07Z</time>
      </trkpt>
      <trkpt lat="43.74754" lon="1.93297">
        <ele>201.05</ele>
        <time>2019-04-14T13:50:11Z</time>
      </trkpt>
      <trkpt lat="43.74753" lon="1.93299">
        <ele>201.53</ele>
        <time>2019-04-14T13:50:13Z</time>
      </trkpt>
      <trkpt lat="43.74737" lon="1.93319">
        <ele>201.53</ele>
        <time>2019-04-14T13:50:28Z</time>
      </trkpt>
      <trkpt lat="43.74726" lon="1.9334">
        <ele>202.01</ele>
        <time>2019-04-14T13:50:44Z</time>
      </trkpt>
      <trkpt lat="43.74722" lon="1.93345">
        <ele>202.01</ele>
        <time>2019-04-14T13:50:49Z</time>
      </trkpt>
      <trkpt lat="43.74708" lon="1.93354">
        <ele>202.98</ele>
        <time>2019-04-14T13:51:00Z</time>
      </trkpt>
      <trkpt lat="43.74693" lon="1.93347">
        <ele>202.98</ele>
        <time>2019-04-14T13:51:16Z</time>
      </trkpt>
      <trkpt lat="43.7468" lon="1.93335">
        <ele>203.94</ele>
        <time>2019-04-14T13:51:33Z</time>
      </trkpt>
      <trkpt lat="43.74676" lon="1.93326">
        <ele>202.49</ele>
        <time>2019-04-14T13:51:54Z</time>
      </trkpt>
      <trkpt lat="43.74667" lon="1.93315">
        <ele>203.94</ele>
        <time>2019-04-14T13:52:10Z</time>
      </trkpt>
      <trkpt lat="43.74654" lon="1.93295">
        <ele>205.38</ele>
        <time>2019-04-14T13:52:27Z</time>
      </trkpt>
      <trkpt lat="43.74652" lon="1.93296">
        <ele>205.86</ele>
        <time>2019-04-14T13:52:45Z</time>
      </trkpt>
      <trkpt lat="43.7465" lon="1.93293">
        <ele>204.9</ele>
        <time>2019-04-14T13:53:20Z</time>
      </trkpt>
      <trkpt lat="43.7464" lon="1.93282">
        <ele>204.9</ele>
        <time>2019-04-14T13:53:42Z</time>
      </trkpt>
      <trkpt lat="43.74639" lon="1.93278">
        <ele>206.34</ele>
        <time>2019-04-14T13:53:44Z</time>
      </trkpt>
      <trkpt lat="43.74623" lon="1.93259">
        <ele>207.3</ele>
        <time>2019-04-14T13:54:02Z</time>
      </trkpt>
      <trkpt lat="43.74606" lon="1.9324">
        <ele>207.78</ele>
        <time>2019-04-14T13:54:22Z</time>
      </trkpt>
      <trkpt lat="43.74593" lon="1.93221">
        <ele>208.74</ele>
        <time>2019-04-14T13:54:39Z</time>
      </trkpt>
      <trkpt lat="43.74579" lon="1.93208">
        <ele>208.74</ele>
        <time>2019-04-14T13:54:54Z</time>
      </trkpt>
      <trkpt lat="43.7456" lon="1.93189">
        <ele>208.74</ele>
        <time>2019-04-14T13:55:13Z</time>
      </trkpt>
      <trkpt lat="43.74545" lon="1.93171">
        <ele>209.7</ele>
        <time>2019-04-14T13:55:30Z</time>
      </trkpt>
      <trkpt lat="43.74529" lon="1.93153">
        <ele>210.19</ele>
        <time>2019-04-14T13:55:47Z</time>
      </trkpt>
      <trkpt lat="43.74516" lon="1.93142">
        <ele>211.15</ele>
        <time>2019-04-14T13:56:02Z</time>
      </trkpt>
      <trkpt lat="43.74514" lon="1.93131">
        <ele>211.15</ele>
        <time>2019-04-14T13:56:28Z</time>
      </trkpt>
      <trkpt lat="43.7451" lon="1.93131">
        <ele>212.11</ele>
        <time>2019-04-14T13:56:45Z</time>
      </trkpt>
      <trkpt lat="43.7449" lon="1.93128">
        <ele>213.07</ele>
        <time>2019-04-14T13:57:05Z</time>
      </trkpt>
      <trkpt lat="43.74471" lon="1.93117">
        <ele>215.95</ele>
        <time>2019-04-14T13:57:30Z</time>
      </trkpt>
      <trkpt lat="43.74454" lon="1.93103">
        <ele>218.84</ele>
        <time>2019-04-14T13:57:54Z</time>
      </trkpt>
      <trkpt lat="43.74438" lon="1.93093">
        <ele>221.72</ele>
        <time>2019-04-14T13:58:15Z</time>
      </trkpt>
      <trkpt lat="43.74421" lon="1.93083">
        <ele>223.16</ele>
        <time>2019-04-14T13:58:34Z</time>
      </trkpt>
      <trkpt lat="43.74409" lon="1.93066">
        <ele>224.12</ele>
        <time>2019-04-14T13:58:51Z</time>
      </trkpt>
      <trkpt lat="43.74394" lon="1.93053">
        <ele>225.57</ele>
        <time>2019-04-14T13:59:09Z</time>
      </trkpt>
      <trkpt lat="43.74376" lon="1.93037">
        <ele>227.01</ele>
        <time>2019-04-14T13:59:28Z</time>
      </trkpt>
      <trkpt lat="43.74363" lon="1.93025">
        <ele>228.93</ele>
        <time>2019-04-14T13:59:44Z</time>
      </trkpt>
      <trkpt lat="43.74347" lon="1.93013">
        <ele>231.33</ele>
        <time>2019-04-14T14:00:04Z</time>
      </trkpt>
      <trkpt lat="43.7433" lon="1.93">
        <ele>232.3</ele>
        <time>2019-04-14T14:00:22Z</time>
      </trkpt>
      <trkpt lat="43.74317" lon="1.92987">
        <ele>232.78</ele>
        <time>2019-04-14T14:00:37Z</time>
      </trkpt>
      <trkpt lat="43.74302" lon="1.92971">
        <ele>233.74</ele>
        <time>2019-04-14T14:00:55Z</time>
      </trkpt>
      <trkpt lat="43.74287" lon="1.92957">
        <ele>235.18</ele>
        <time>2019-04-14T14:01:12Z</time>
      </trkpt>
      <trkpt lat="43.74275" lon="1.92941">
        <ele>235.66</ele>
        <time>2019-04-14T14:01:26Z</time>
      </trkpt>
      <trkpt lat="43.74262" lon="1.92925">
        <ele>237.1</ele>
        <time>2019-04-14T14:01:44Z</time>
      </trkpt>
      <trkpt lat="43.74249" lon="1.92909">
        <ele>237.58</ele>
        <time>2019-04-14T14:02:01Z</time>
      </trkpt>
      <trkpt lat="43.74232" lon="1.92889">
        <ele>238.54</ele>
        <time>2019-04-14T14:02:21Z</time>
      </trkpt>
      <trkpt lat="43.7422" lon="1.92873">
        <ele>239.51</ele>
        <time>2019-04-14T14:02:37Z</time>
      </trkpt>
      <trkpt lat="43.74206" lon="1.92859">
        <ele>240.47</ele>
        <time>2019-04-14T14:02:52Z</time>
      </trkpt>
      <trkpt lat="43.74189" lon="1.92849">
        <ele>241.43</ele>
        <time>2019-04-14T14:03:10Z</time>
      </trkpt>
      <trkpt lat="43.74166" lon="1.92842">
        <ele>242.39</ele>
        <time>2019-04-14T14:03:29Z</time>
      </trkpt>
      <trkpt lat="43.74146" lon="1.92842">
        <ele>243.83</ele>
        <time>2019-04-14T14:03:47Z</time>
      </trkpt>
      <trkpt lat="43.74125" lon="1.92848">
        <ele>244.31</ele>
        <time>2019-04-14T14:04:06Z</time>
      </trkpt>
      <trkpt lat="43.74114" lon="1.92851">
        <ele>244.79</ele>
        <time>2019-04-14T14:04:15Z</time>
      </trkpt>
      <trkpt lat="43.74095" lon="1.92859">
        <ele>246.23</ele>
        <time>2019-04-14T14:04:33Z</time>
      </trkpt>
      <trkpt lat="43.74078" lon="1.92866">
        <ele>247.68</ele>
        <time>2019-04-14T14:04:51Z</time>
      </trkpt>
      <trkpt lat="43.74061" lon="1.92872">
        <ele>249.6</ele>
        <time>2019-04-14T14:05:10Z</time>
      </trkpt>
      <trkpt lat="43.74042" lon="1.92876">
        <ele>251.52</ele>
        <time>2019-04-14T14:05:29Z</time>
      </trkpt>
      <trkpt lat="43.74022" lon="1.92879">
        <ele>252.96</ele>
        <time>2019-04-14T14:05:48Z</time>
      </trkpt>
      <trkpt lat="43.74004" lon="1.92882">
        <ele>254.89</ele>
        <time>2019-04-14T14:06:07Z</time>
      </trkpt>
      <trkpt lat="43.73987" lon="1.92887">
        <ele>256.33</ele>
        <time>2019-04-14T14:06:24Z</time>
      </trkpt>
      <trkpt lat="43.73964" lon="1.92891">
        <ele>258.25</ele>
        <time>2019-04-14T14:06:44Z</time>
      </trkpt>
      <trkpt lat="43.73952" lon="1.92896">
        <ele>259.69</ele>
        <time>2019-04-14T14:06:59Z</time>
      </trkpt>
      <trkpt lat="43.73937" lon="1.92901">
        <ele>261.14</ele>
        <time>2019-04-14T14:07:14Z</time>
      </trkpt>
      <trkpt lat="43.7393" lon="1.92906">
        <ele>262.1</ele>
        <time>2019-04-14T14:07:21Z</time>
      </trkpt>
      <trkpt lat="43.73917" lon="1.92919">
        <ele>263.54</ele>
        <time>2019-04-14T14:07:38Z</time>
      </trkpt>
      <trkpt lat="43.739" lon="1.9293">
        <ele>264.5</ele>
        <time>2019-04-14T14:07:57Z</time>
      </trkpt>
      <trkpt lat="43.7389" lon="1.92937">
        <ele>265.46</ele>
        <time>2019-04-14T14:08:13Z</time>
      </trkpt>
      <trkpt lat="43.73876" lon="1.92943">
        <ele>265.94</ele>
        <time>2019-04-14T14:08:31Z</time>
      </trkpt>
      <trkpt lat="43.73859" lon="1.92949">
        <ele>267.38</ele>
        <time>2019-04-14T14:08:48Z</time>
      </trkpt>
      <trkpt lat="43.73841" lon="1.92954">
        <ele>268.35</ele>
        <time>2019-04-14T14:09:06Z</time>
      </trkpt>
      <trkpt lat="43.73822" lon="1.92961">
        <ele>268.83</ele>
        <time>2019-04-14T14:09:25Z</time>
      </trkpt>
      <trkpt lat="43.73801" lon="1.92968">
        <ele>269.79</ele>
        <time>2019-04-14T14:09:46Z</time>
      </trkpt>
      <trkpt lat="43.73782" lon="1.92976">
        <ele>269.79</ele>
        <time>2019-04-14T14:10:04Z</time>
      </trkpt>
      <trkpt lat="43.73762" lon="1.92984">
        <ele>270.75</ele>
        <time>2019-04-14T14:10:23Z</time>
      </trkpt>
      <trkpt lat="43.73741" lon="1.92991">
        <ele>270.75</ele>
        <time>2019-04-14T14:10:43Z</time>
      </trkpt>
      <trkpt lat="43.73723" lon="1.92995">
        <ele>271.23</ele>
        <time>2019-04-14T14:10:59Z</time>
      </trkpt>
      <trkpt lat="43.73699" lon="1.93">
        <ele>271.71</ele>
        <time>2019-04-14T14:11:20Z</time>
      </trkpt>
      <trkpt lat="43.73674" lon="1.93002">
        <ele>271.71</ele>
        <time>2019-04-14T14:11:41Z</time>
      </trkpt>
      <trkpt lat="43.73649" lon="1.93003">
        <ele>271.71</ele>
        <time>2019-04-14T14:12:02Z</time>
      </trkpt>
      <trkpt lat="43.73625" lon="1.93004">
        <ele>271.71</ele>
        <time>2019-04-14T14:12:22Z</time>
      </trkpt>
      <trkpt lat="43.73601" lon="1.93003">
        <ele>271.71</ele>
        <time>2019-04-14T14:12:43Z</time>
      </trkpt>
      <trkpt lat="43.73577" lon="1.93005">
        <ele>271.71</ele>
        <time>2019-04-14T14:13:04Z</time>
      </trkpt>
      <trkpt lat="43.73549" lon="1.93005">
        <ele>271.71</ele>
        <time>2019-04-14T14:13:28Z</time>
      </trkpt>
      <trkpt lat="43.73523" lon="1.92999">
        <ele>272.67</ele>
        <time>2019-04-14T14:13:51Z</time>
      </trkpt>
      <trkpt lat="43.73501" lon="1.9299">
        <ele>273.15</ele>
        <time>2019-04-14T14:14:12Z</time>
      </trkpt>
      <trkpt lat="43.73481" lon="1.92985">
        <ele>273.63</ele>
        <time>2019-04-14T14:14:31Z</time>
      </trkpt>
      <trkpt lat="43.73459" lon="1.92977">
        <ele>274.11</ele>
        <time>2019-04-14T14:14:51Z</time>
      </trkpt>
      <trkpt lat="43.73433" lon="1.92973">
        <ele>272.67</ele>
        <time>2019-04-14T14:15:13Z</time>
      </trkpt>
      <trkpt lat="43.73407" lon="1.92969">
        <ele>272.67</ele>
        <time>2019-04-14T14:15:34Z</time>
      </trkpt>
      <trkpt lat="43.73389" lon="1.92964">
        <ele>271.71</ele>
        <time>2019-04-14T14:15:51Z</time>
      </trkpt>
      <trkpt lat="43.73362" lon="1.92953">
        <ele>271.23</ele>
        <time>2019-04-14T14:16:14Z</time>
      </trkpt>
      <trkpt lat="43.73353" lon="1.92942">
        <ele>272.67</ele>
        <time>2019-04-14T14:16:24Z</time>
      </trkpt>
      <trkpt lat="43.73335" lon="1.92915">
        <ele>272.67</ele>
        <time>2019-04-14T14:16:46Z</time>
      </trkpt>
      <trkpt lat="43.73318" lon="1.92889">
        <ele>273.63</ele>
        <time>2019-04-14T14:17:09Z</time>
      </trkpt>
      <trkpt lat="43.73303" lon="1.92866">
        <ele>275.07</ele>
        <time>2019-04-14T14:17:30Z</time>
      </trkpt>
      <trkpt lat="43.73289" lon="1.92842">
        <ele>275.56</ele>
        <time>2019-04-14T14:17:51Z</time>
      </trkpt>
      <trkpt lat="43.73271" lon="1.92818">
        <ele>276.52</ele>
        <time>2019-04-14T14:18:13Z</time>
      </trkpt>
      <trkpt lat="43.73254" lon="1.92795">
        <ele>275.56</ele>
        <time>2019-04-14T14:18:35Z</time>
      </trkpt>
      <trkpt lat="43.73242" lon="1.92787">
        <ele>275.56</ele>
        <time>2019-04-14T14:18:53Z</time>
      </trkpt>
      <trkpt lat="43.73224" lon="1.92804">
        <ele>274.59</ele>
        <time>2019-04-14T14:19:16Z</time>
      </trkpt>
      <trkpt lat="43.73222" lon="1.92807">
        <ele>274.59</ele>
        <time>2019-04-14T14:19:39Z</time>
      </trkpt>
      <trkpt lat="43.73221" lon="1.92808">
        <ele>274.59</ele>
        <time>2019-04-14T14:20:08Z</time>
      </trkpt>
      <trkpt lat="43.73213" lon="1.92805">
        <ele>273.63</ele>
        <time>2019-04-14T14:20:36Z</time>
      </trkpt>
      <trkpt lat="43.73199" lon="1.92798">
        <ele>272.67</ele>
        <time>2019-04-14T14:20:54Z</time>
      </trkpt>
      <trkpt lat="43.7318" lon="1.92799">
        <ele>272.19</ele>
        <time>2019-04-14T14:21:13Z</time>
      </trkpt>
      <trkpt lat="43.73157" lon="1.92808">
        <ele>272.19</ele>
        <time>2019-04-14T14:21:33Z</time>
      </trkpt>
      <trkpt lat="43.73139" lon="1.9282">
        <ele>272.19</ele>
        <time>2019-04-14T14:21:51Z</time>
      </trkpt>
      <trkpt lat="43.73125" lon="1.92827">
        <ele>272.19</ele>
        <time>2019-04-14T14:22:05Z</time>
      </trkpt>
      <trkpt lat="43.73113" lon="1.92826">
        <ele>272.19</ele>
        <time>2019-04-14T14:22:15Z</time>
      </trkpt>
      <trkpt lat="43.73101" lon="1.92801">
        <ele>271.23</ele>
        <time>2019-04-14T14:22:36Z</time>
      </trkpt>
      <trkpt lat="43.731" lon="1.92791">
        <ele>269.31</ele>
        <time>2019-04-14T14:22:44Z</time>
      </trkpt>
      <trkpt lat="43.73096" lon="1.92773">
        <ele>270.75</ele>
        <time>2019-04-14T14:22:54Z</time>
      </trkpt>
      <trkpt lat="43.73091" lon="1.92765">
        <ele>270.75</ele>
        <time>2019-04-14T14:23:00Z</time>
      </trkpt>
      <trkpt lat="43.73073" lon="1.92749">
        <ele>268.83</ele>
        <time>2019-04-14T14:23:18Z</time>
      </trkpt>
      <trkpt lat="43.73055" lon="1.92726">
        <ele>266.9</ele>
        <time>2019-04-14T14:23:37Z</time>
      </trkpt>
      <trkpt lat="43.73043" lon="1.92706">
        <ele>266.42</ele>
        <time>2019-04-14T14:23:53Z</time>
      </trkpt>
      <trkpt lat="43.73031" lon="1.92686">
        <ele>264.5</ele>
        <time>2019-04-14T14:24:08Z</time>
      </trkpt>
      <trkpt lat="43.73017" lon="1.92659">
        <ele>261.14</ele>
        <time>2019-04-14T14:24:28Z</time>
      </trkpt>
      <trkpt lat="43.73011" lon="1.92638">
        <ele>258.25</ele>
        <time>2019-04-14T14:24:42Z</time>
      </trkpt>
      <trkpt lat="43.73012" lon="1.92631">
        <ele>258.25</ele>
        <time>2019-04-14T14:24:46Z</time>
      </trkpt>
      <trkpt lat="43.73018" lon="1.9261">
        <ele>257.29</ele>
        <time>2019-04-14T14:25:02Z</time>
      </trkpt>
      <trkpt lat="43.73023" lon="1.92597">
        <ele>255.85</ele>
        <time>2019-04-14T14:25:10Z</time>
      </trkpt>
      <trkpt lat="43.73026" lon="1.92587">
        <ele>254.41</ele>
        <time>2019-04-14T14:25:16Z</time>
      </trkpt>
      <trkpt lat="43.73037" lon="1.92554">
        <ele>253.44</ele>
        <time>2019-04-14T14:25:38Z</time>
      </trkpt>
      <trkpt lat="43.73043" lon="1.9252">
        <ele>250.56</ele>
        <time>2019-04-14T14:25:58Z</time>
      </trkpt>
      <trkpt lat="43.73045" lon="1.92499">
        <ele>247.68</ele>
        <time>2019-04-14T14:26:12Z</time>
      </trkpt>
      <trkpt lat="43.73045" lon="1.92472">
        <ele>245.27</ele>
        <time>2019-04-14T14:26:28Z</time>
      </trkpt>
      <trkpt lat="43.73045" lon="1.92442">
        <ele>242.39</ele>
        <time>2019-04-14T14:26:47Z</time>
      </trkpt>
      <trkpt lat="43.73045" lon="1.92414">
        <ele>239.51</ele>
        <time>2019-04-14T14:27:05Z</time>
      </trkpt>
      <trkpt lat="43.73042" lon="1.92372">
        <ele>236.14</ele>
        <time>2019-04-14T14:27:31Z</time>
      </trkpt>
      <trkpt lat="43.73038" lon="1.92335">
        <ele>232.78</ele>
        <time>2019-04-14T14:27:52Z</time>
      </trkpt>
      <trkpt lat="43.73037" lon="1.92298">
        <ele>230.37</ele>
        <time>2019-04-14T14:28:15Z</time>
      </trkpt>
      <trkpt lat="43.73035" lon="1.92274">
        <ele>228.93</ele>
        <time>2019-04-14T14:28:34Z</time>
      </trkpt>
      <trkpt lat="43.73036" lon="1.92244">
        <ele>225.57</ele>
        <time>2019-04-14T14:28:53Z</time>
      </trkpt>
      <trkpt lat="43.73039" lon="1.92207">
        <ele>224.12</ele>
        <time>2019-04-14T14:29:15Z</time>
      </trkpt>
      <trkpt lat="43.7304" lon="1.92169">
        <ele>223.64</ele>
        <time>2019-04-14T14:29:37Z</time>
      </trkpt>
      <trkpt lat="43.7304" lon="1.92128">
        <ele>222.2</ele>
        <time>2019-04-14T14:30:00Z</time>
      </trkpt>
      <trkpt lat="43.73043" lon="1.92096">
        <ele>220.76</ele>
        <time>2019-04-14T14:30:20Z</time>
      </trkpt>
      <trkpt lat="43.73044" lon="1.92054">
        <ele>219.32</ele>
        <time>2019-04-14T14:30:44Z</time>
      </trkpt>
      <trkpt lat="43.73039" lon="1.92005">
        <ele>217.4</ele>
        <time>2019-04-14T14:31:12Z</time>
      </trkpt>
      <trkpt lat="43.73033" lon="1.91964">
        <ele>216.91</ele>
        <time>2019-04-14T14:31:38Z</time>
      </trkpt>
      <trkpt lat="43.73032" lon="1.91963">
        <ele>216.91</ele>
        <time>2019-04-14T14:31:39Z</time>
      </trkpt>
      <trkpt lat="43.73031" lon="1.91958">
        <ele>218.36</ele>
        <time>2019-04-14T14:31:42Z</time>
      </trkpt>
      <trkpt lat="43.7302" lon="1.91916">
        <ele>216.91</ele>
        <time>2019-04-14T14:32:09Z</time>
      </trkpt>
      <trkpt lat="43.7301" lon="1.91881">
        <ele>218.36</ele>
        <time>2019-04-14T14:32:31Z</time>
      </trkpt>
      <trkpt lat="43.72998" lon="1.91849">
        <ele>219.32</ele>
        <time>2019-04-14T14:32:52Z</time>
      </trkpt>
      <trkpt lat="43.7299" lon="1.91816">
        <ele>219.8</ele>
        <time>2019-04-14T14:33:14Z</time>
      </trkpt>
      <trkpt lat="43.72985" lon="1.91779">
        <ele>220.28</ele>
        <time>2019-04-14T14:33:37Z</time>
      </trkpt>
      <trkpt lat="43.72984" lon="1.91756">
        <ele>221.24</ele>
        <time>2019-04-14T14:33:51Z</time>
      </trkpt>
      <trkpt lat="43.72984" lon="1.91727">
        <ele>219.8</ele>
        <time>2019-04-14T14:34:08Z</time>
      </trkpt>
      <trkpt lat="43.72983" lon="1.91721">
        <ele>221.24</ele>
        <time>2019-04-14T14:34:12Z</time>
      </trkpt>
      <trkpt lat="43.72986" lon="1.91693">
        <ele>222.2</ele>
        <time>2019-04-14T14:34:31Z</time>
      </trkpt>
      <trkpt lat="43.72993" lon="1.91659">
        <ele>222.68</ele>
        <time>2019-04-14T14:34:53Z</time>
      </trkpt>
      <trkpt lat="43.72999" lon="1.91631">
        <ele>224.61</ele>
        <time>2019-04-14T14:35:10Z</time>
      </trkpt>
      <trkpt lat="43.73006" lon="1.9161">
        <ele>225.09</ele>
        <time>2019-04-14T14:35:26Z</time>
      </trkpt>
      <trkpt lat="43.73015" lon="1.9159">
        <ele>223.64</ele>
        <time>2019-04-14T14:35:41Z</time>
      </trkpt>
      <trkpt lat="43.73026" lon="1.91568">
        <ele>227.01</ele>
        <time>2019-04-14T14:35:57Z</time>
      </trkpt>
      <trkpt lat="43.73036" lon="1.91544">
        <ele>227.49</ele>
        <time>2019-04-14T14:36:15Z</time>
      </trkpt>
      <trkpt lat="43.73045" lon="1.91516">
        <ele>229.41</ele>
        <time>2019-04-14T14:36:36Z</time>
      </trkpt>
      <trkpt lat="43.73047" lon="1.91487">
        <ele>230.37</ele>
        <time>2019-04-14T14:36:55Z</time>
      </trkpt>
      <trkpt lat="43.73043" lon="1.91457">
        <ele>231.33</ele>
        <time>2019-04-14T14:37:15Z</time>
      </trkpt>
      <trkpt lat="43.73041" lon="1.9145">
        <ele>232.78</ele>
        <time>2019-04-14T14:37:19Z</time>
      </trkpt>
      <trkpt lat="43.7304" lon="1.91423">
        <ele>235.66</ele>
        <time>2019-04-14T14:37:40Z</time>
      </trkpt>
      <trkpt lat="43.7304" lon="1.91421">
        <ele>235.66</ele>
        <time>2019-04-14T14:37:41Z</time>
      </trkpt>
      <trkpt lat="43.7304" lon="1.91418">
        <ele>234.7</ele>
        <time>2019-04-14T14:37:44Z</time>
      </trkpt>
      <trkpt lat="43.7304" lon="1.91414">
        <ele>236.14</ele>
        <time>2019-04-14T14:37:47Z</time>
      </trkpt>
      <trkpt lat="43.73049" lon="1.91391">
        <ele>239.02</ele>
        <time>2019-04-14T14:38:08Z</time>
      </trkpt>
      <trkpt lat="43.73048" lon="1.91389">
        <ele>239.02</ele>
        <time>2019-04-14T14:38:09Z</time>
      </trkpt>
      <trkpt lat="43.73048" lon="1.91368">
        <ele>241.43</ele>
        <time>2019-04-14T14:38:28Z</time>
      </trkpt>
      <trkpt lat="43.73033" lon="1.91388">
        <ele>241.91</ele>
        <time>2019-04-14T14:38:48Z</time>
      </trkpt>
      <trkpt lat="43.73029" lon="1.91395">
        <ele>242.87</ele>
        <time>2019-04-14T14:38:53Z</time>
      </trkpt>
      <trkpt lat="43.73016" lon="1.91417">
        <ele>243.35</ele>
        <time>2019-04-14T14:39:10Z</time>
      </trkpt>
      <trkpt lat="43.72998" lon="1.91443">
        <ele>244.31</ele>
        <time>2019-04-14T14:39:29Z</time>
      </trkpt>
      <trkpt lat="43.7298" lon="1.91469">
        <ele>245.75</ele>
        <time>2019-04-14T14:39:52Z</time>
      </trkpt>
      <trkpt lat="43.72961" lon="1.91484">
        <ele>247.68</ele>
        <time>2019-04-14T14:40:13Z</time>
      </trkpt>
      <trkpt lat="43.7294" lon="1.9149">
        <ele>250.08</ele>
        <time>2019-04-14T14:40:33Z</time>
      </trkpt>
      <trkpt lat="43.7292" lon="1.91497">
        <ele>252.48</ele>
        <time>2019-04-14T14:40:51Z</time>
      </trkpt>
      <trkpt lat="43.72892" lon="1.91508">
        <ele>252.48</ele>
        <time>2019-04-14T14:41:15Z</time>
      </trkpt>
      <trkpt lat="43.72869" lon="1.91518">
        <ele>251.52</ele>
        <time>2019-04-14T14:41:35Z</time>
      </trkpt>
      <trkpt lat="43.72868" lon="1.91518">
        <ele>251.52</ele>
        <time>2019-04-14T14:41:36Z</time>
      </trkpt>
      <trkpt lat="43.72846" lon="1.9152">
        <ele>251.04</ele>
        <time>2019-04-14T14:41:55Z</time>
      </trkpt>
      <trkpt lat="43.72841" lon="1.91519">
        <ele>251.04</ele>
        <time>2019-04-14T14:41:59Z</time>
      </trkpt>
      <trkpt lat="43.72821" lon="1.91516">
        <ele>251.04</ele>
        <time>2019-04-14T14:42:17Z</time>
      </trkpt>
      <trkpt lat="43.72804" lon="1.91517">
        <ele>252</ele>
        <time>2019-04-14T14:42:31Z</time>
      </trkpt>
      <trkpt lat="43.728" lon="1.91517">
        <ele>252</ele>
        <time>2019-04-14T14:42:36Z</time>
      </trkpt>
      <trkpt lat="43.72782" lon="1.91521">
        <ele>251.04</ele>
        <time>2019-04-14T14:42:52Z</time>
      </trkpt>
      <trkpt lat="43.7276" lon="1.91534">
        <ele>249.6</ele>
        <time>2019-04-14T14:43:12Z</time>
      </trkpt>
      <trkpt lat="43.7274" lon="1.91549">
        <ele>247.68</ele>
        <time>2019-04-14T14:43:32Z</time>
      </trkpt>
      <trkpt lat="43.72734" lon="1.91553">
        <ele>246.72</ele>
        <time>2019-04-14T14:43:38Z</time>
      </trkpt>
      <trkpt lat="43.72729" lon="1.91553">
        <ele>246.72</ele>
        <time>2019-04-14T14:43:42Z</time>
      </trkpt>
      <trkpt lat="43.72722" lon="1.91547">
        <ele>248.16</ele>
        <time>2019-04-14T14:43:51Z</time>
      </trkpt>
      <trkpt lat="43.72713" lon="1.9152">
        <ele>249.6</ele>
        <time>2019-04-14T14:44:10Z</time>
      </trkpt>
      <trkpt lat="43.72711" lon="1.9149">
        <ele>251.52</ele>
        <time>2019-04-14T14:44:30Z</time>
      </trkpt>
      <trkpt lat="43.72707" lon="1.91461">
        <ele>252.96</ele>
        <time>2019-04-14T14:44:48Z</time>
      </trkpt>
      <trkpt lat="43.72704" lon="1.91433">
        <ele>253.93</ele>
        <time>2019-04-14T14:45:09Z</time>
      </trkpt>
      <trkpt lat="43.72705" lon="1.91401">
        <ele>255.85</ele>
        <time>2019-04-14T14:45:31Z</time>
      </trkpt>
      <trkpt lat="43.72705" lon="1.91368">
        <ele>257.77</ele>
        <time>2019-04-14T14:45:52Z</time>
      </trkpt>
      <trkpt lat="43.72708" lon="1.91334">
        <ele>257.77</ele>
        <time>2019-04-14T14:46:15Z</time>
      </trkpt>
      <trkpt lat="43.72711" lon="1.91301">
        <ele>259.69</ele>
        <time>2019-04-14T14:46:37Z</time>
      </trkpt>
      <trkpt lat="43.7271" lon="1.9127">
        <ele>261.14</ele>
        <time>2019-04-14T14:46:58Z</time>
      </trkpt>
      <trkpt lat="43.72712" lon="1.91243">
        <ele>263.06</ele>
        <time>2019-04-14T14:47:17Z</time>
      </trkpt>
      <trkpt lat="43.7271" lon="1.91213">
        <ele>264.02</ele>
        <time>2019-04-14T14:47:38Z</time>
      </trkpt>
      <trkpt lat="43.72695" lon="1.91195">
        <ele>264.5</ele>
        <time>2019-04-14T14:47:56Z</time>
      </trkpt>
      <trkpt lat="43.72683" lon="1.91187">
        <ele>265.46</ele>
        <time>2019-04-14T14:48:08Z</time>
      </trkpt>
      <trkpt lat="43.72672" lon="1.91185">
        <ele>264.98</ele>
        <time>2019-04-14T14:48:16Z</time>
      </trkpt>
      <trkpt lat="43.72647" lon="1.91179">
        <ele>265.94</ele>
        <time>2019-04-14T14:48:37Z</time>
      </trkpt>
      <trkpt lat="43.72628" lon="1.91172">
        <ele>265.94</ele>
        <time>2019-04-14T14:48:54Z</time>
      </trkpt>
      <trkpt lat="43.72607" lon="1.91177">
        <ele>266.9</ele>
        <time>2019-04-14T14:49:12Z</time>
      </trkpt>
      <trkpt lat="43.72604" lon="1.91178">
        <ele>266.9</ele>
        <time>2019-04-14T14:49:15Z</time>
      </trkpt>
      <trkpt lat="43.72586" lon="1.9119">
        <ele>267.86</ele>
        <time>2019-04-14T14:49:32Z</time>
      </trkpt>
      <trkpt lat="43.72581" lon="1.91198">
        <ele>267.86</ele>
        <time>2019-04-14T14:49:44Z</time>
      </trkpt>
      <trkpt lat="43.72577" lon="1.91201">
        <ele>268.35</ele>
        <time>2019-04-14T14:50:05Z</time>
      </trkpt>
      <trkpt lat="43.72559" lon="1.91219">
        <ele>268.83</ele>
        <time>2019-04-14T14:50:22Z</time>
      </trkpt>
      <trkpt lat="43.72546" lon="1.91236">
        <ele>269.79</ele>
        <time>2019-04-14T14:50:37Z</time>
      </trkpt>
      <trkpt lat="43.72532" lon="1.91252">
        <ele>269.79</ele>
        <time>2019-04-14T14:50:54Z</time>
      </trkpt>
      <trkpt lat="43.72514" lon="1.9127">
        <ele>270.75</ele>
        <time>2019-04-14T14:51:14Z</time>
      </trkpt>
      <trkpt lat="43.72499" lon="1.91284">
        <ele>271.23</ele>
        <time>2019-04-14T14:51:30Z</time>
      </trkpt>
      <trkpt lat="43.72495" lon="1.91288">
        <ele>271.23</ele>
        <time>2019-04-14T14:51:35Z</time>
      </trkpt>
      <trkpt lat="43.72476" lon="1.91302">
        <ele>272.67</ele>
        <time>2019-04-14T14:51:55Z</time>
      </trkpt>
      <trkpt lat="43.7247" lon="1.91299">
        <ele>273.15</ele>
        <time>2019-04-14T14:52:02Z</time>
      </trkpt>
      <trkpt lat="43.72462" lon="1.9128">
        <ele>271.71</ele>
        <time>2019-04-14T14:52:17Z</time>
      </trkpt>
      <trkpt lat="43.72463" lon="1.9127">
        <ele>271.23</ele>
        <time>2019-04-14T14:52:23Z</time>
      </trkpt>
      <trkpt lat="43.72465" lon="1.91257">
        <ele>270.27</ele>
        <time>2019-04-14T14:52:31Z</time>
      </trkpt>
      <trkpt lat="43.72469" lon="1.9125">
        <ele>271.71</ele>
        <time>2019-04-14T14:52:36Z</time>
      </trkpt>
      <trkpt lat="43.72474" lon="1.9124">
        <ele>269.79</ele>
        <time>2019-04-14T14:52:44Z</time>
      </trkpt>
      <trkpt lat="43.72475" lon="1.9123">
        <ele>271.23</ele>
        <time>2019-04-14T14:52:50Z</time>
      </trkpt>
      <trkpt lat="43.72475" lon="1.91227">
        <ele>269.79</ele>
        <time>2019-04-14T14:52:52Z</time>
      </trkpt>
      <trkpt lat="43.72479" lon="1.912">
        <ele>269.79</ele>
        <time>2019-04-14T14:53:08Z</time>
      </trkpt>
      <trkpt lat="43.72482" lon="1.91185">
        <ele>269.79</ele>
        <time>2019-04-14T14:53:18Z</time>
      </trkpt>
      <trkpt lat="43.72486" lon="1.91176">
        <ele>268.83</ele>
        <time>2019-04-14T14:53:24Z</time>
      </trkpt>
      <trkpt lat="43.7249" lon="1.91159">
        <ele>268.35</ele>
        <time>2019-04-14T14:53:35Z</time>
      </trkpt>
      <trkpt lat="43.72493" lon="1.91148">
        <ele>267.38</ele>
        <time>2019-04-14T14:53:50Z</time>
      </trkpt>
      <trkpt lat="43.72494" lon="1.91144">
        <ele>267.38</ele>
        <time>2019-04-14T14:54:15Z</time>
      </trkpt>
      <trkpt lat="43.72496" lon="1.91149">
        <ele>267.38</ele>
        <time>2019-04-14T14:54:45Z</time>
      </trkpt>
      <trkpt lat="43.72496" lon="1.91148">
        <ele>267.38</ele>
        <time>2019-04-14T14:55:15Z</time>
      </trkpt>
      <trkpt lat="43.7249" lon="1.91145">
        <ele>267.38</ele>
        <time>2019-04-14T14:55:38Z</time>
      </trkpt>
      <trkpt lat="43.72491" lon="1.91144">
        <ele>268.83</ele>
        <time>2019-04-14T14:55:58Z</time>
      </trkpt>
      <trkpt lat="43.72492" lon="1.91144">
        <ele>267.38</ele>
        <time>2019-04-14T14:56:33Z</time>
      </trkpt>
      <trkpt lat="43.72492" lon="1.91144">
        <ele>268.83</ele>
        <time>2019-04-14T14:56:35Z</time>
      </trkpt>
      <trkpt lat="43.72492" lon="1.91145">
        <ele>268.35</ele>
        <time>2019-04-14T14:56:43Z</time>
      </trkpt>
      <trkpt lat="43.7249" lon="1.91143">
        <ele>268.35</ele>
        <time>2019-04-14T14:57:03Z</time>
      </trkpt>
      <trkpt lat="43.72494" lon="1.91143">
        <ele>269.79</ele>
        <time>2019-04-14T14:57:19Z</time>
      </trkpt>
      <trkpt lat="43.72501" lon="1.91132">
        <ele>268.35</ele>
        <time>2019-04-14T14:57:34Z</time>
      </trkpt>
      <trkpt lat="43.72507" lon="1.91113">
        <ele>268.35</ele>
        <time>2019-04-14T14:57:54Z</time>
      </trkpt>
      <trkpt lat="43.72511" lon="1.91094">
        <ele>268.35</ele>
        <time>2019-04-14T14:58:11Z</time>
      </trkpt>
      <trkpt lat="43.72511" lon="1.91064">
        <ele>267.38</ele>
        <time>2019-04-14T14:58:27Z</time>
      </trkpt>
      <trkpt lat="43.72507" lon="1.91044">
        <ele>267.38</ele>
        <time>2019-04-14T14:58:41Z</time>
      </trkpt>
      <trkpt lat="43.72504" lon="1.91037">
        <ele>267.38</ele>
        <time>2019-04-14T14:58:46Z</time>
      </trkpt>
      <trkpt lat="43.72493" lon="1.91018">
        <ele>266.9</ele>
        <time>2019-04-14T14:59:02Z</time>
      </trkpt>
      <trkpt lat="43.72488" lon="1.91007">
        <ele>266.42</ele>
        <time>2019-04-14T14:59:11Z</time>
      </trkpt>
      <trkpt lat="43.72484" lon="1.90973">
        <ele>265.94</ele>
        <time>2019-04-14T14:59:30Z</time>
      </trkpt>
      <trkpt lat="43.72489" lon="1.90952">
        <ele>267.38</ele>
        <time>2019-04-14T14:59:45Z</time>
      </trkpt>
      <trkpt lat="43.72504" lon="1.90934">
        <ele>267.86</ele>
        <time>2019-04-14T15:00:02Z</time>
      </trkpt>
      <trkpt lat="43.72513" lon="1.90929">
        <ele>269.31</ele>
        <time>2019-04-14T15:00:10Z</time>
      </trkpt>
      <trkpt lat="43.72517" lon="1.90929">
        <ele>267.86</ele>
        <time>2019-04-14T15:00:13Z</time>
      </trkpt>
      <trkpt lat="43.72537" lon="1.90932">
        <ele>269.31</ele>
        <time>2019-04-14T15:00:31Z</time>
      </trkpt>
      <trkpt lat="43.72547" lon="1.90936">
        <ele>269.31</ele>
        <time>2019-04-14T15:00:45Z</time>
      </trkpt>
      <trkpt lat="43.72561" lon="1.9094">
        <ele>268.83</ele>
        <time>2019-04-14T15:01:01Z</time>
      </trkpt>
      <trkpt lat="43.72576" lon="1.90942">
        <ele>267.86</ele>
        <time>2019-04-14T15:01:18Z</time>
      </trkpt>
      <trkpt lat="43.72601" lon="1.90943">
        <ele>267.38</ele>
        <time>2019-04-14T15:01:39Z</time>
      </trkpt>
      <trkpt lat="43.72615" lon="1.90931">
        <ele>266.9</ele>
        <time>2019-04-14T15:01:55Z</time>
      </trkpt>
      <trkpt lat="43.7263" lon="1.90913">
        <ele>266.42</ele>
        <time>2019-04-14T15:02:14Z</time>
      </trkpt>
      <trkpt lat="43.72633" lon="1.90908">
        <ele>266.42</ele>
        <time>2019-04-14T15:02:18Z</time>
      </trkpt>
      <trkpt lat="43.72643" lon="1.90885">
        <ele>266.42</ele>
        <time>2019-04-14T15:02:34Z</time>
      </trkpt>
      <trkpt lat="43.72645" lon="1.90877">
        <ele>264.98</ele>
        <time>2019-04-14T15:02:39Z</time>
      </trkpt>
      <trkpt lat="43.72656" lon="1.90852">
        <ele>264.02</ele>
        <time>2019-04-14T15:02:56Z</time>
      </trkpt>
      <trkpt lat="43.72671" lon="1.90824">
        <ele>264.02</ele>
        <time>2019-04-14T15:03:15Z</time>
      </trkpt>
      <trkpt lat="43.72683" lon="1.90803">
        <ele>264.02</ele>
        <time>2019-04-14T15:03:30Z</time>
      </trkpt>
      <trkpt lat="43.72689" lon="1.90768">
        <ele>263.54</ele>
        <time>2019-04-14T15:03:52Z</time>
      </trkpt>
      <trkpt lat="43.72689" lon="1.90743">
        <ele>263.06</ele>
        <time>2019-04-14T15:04:10Z</time>
      </trkpt>
      <trkpt lat="43.7269" lon="1.90738">
        <ele>263.54</ele>
        <time>2019-04-14T15:04:14Z</time>
      </trkpt>
      <trkpt lat="43.72703" lon="1.90706">
        <ele>264.5</ele>
        <time>2019-04-14T15:04:34Z</time>
      </trkpt>
      <trkpt lat="43.72712" lon="1.90693">
        <ele>264.5</ele>
        <time>2019-04-14T15:04:45Z</time>
      </trkpt>
      <trkpt lat="43.72726" lon="1.90672">
        <ele>263.54</ele>
        <time>2019-04-14T15:05:03Z</time>
      </trkpt>
      <trkpt lat="43.72741" lon="1.90658">
        <ele>263.06</ele>
        <time>2019-04-14T15:05:19Z</time>
      </trkpt>
      <trkpt lat="43.7276" lon="1.90648">
        <ele>264.02</ele>
        <time>2019-04-14T15:05:37Z</time>
      </trkpt>
      <trkpt lat="43.72777" lon="1.9064">
        <ele>264.02</ele>
        <time>2019-04-14T15:05:53Z</time>
      </trkpt>
      <trkpt lat="43.72786" lon="1.90633">
        <ele>261.14</ele>
        <time>2019-04-14T15:06:04Z</time>
      </trkpt>
      <trkpt lat="43.72787" lon="1.90632">
        <ele>261.14</ele>
        <time>2019-04-14T15:06:05Z</time>
      </trkpt>
      <trkpt lat="43.72795" lon="1.90627">
        <ele>261.62</ele>
        <time>2019-04-14T15:06:12Z</time>
      </trkpt>
      <trkpt lat="43.72806" lon="1.90624">
        <ele>262.1</ele>
        <time>2019-04-14T15:06:25Z</time>
      </trkpt>
      <trkpt lat="43.72811" lon="1.90617">
        <ele>260.65</ele>
        <time>2019-04-14T15:06:32Z</time>
      </trkpt>
      <trkpt lat="43.72818" lon="1.90603">
        <ele>259.69</ele>
        <time>2019-04-14T15:06:44Z</time>
      </trkpt>
      <trkpt lat="43.72829" lon="1.90575">
        <ele>258.25</ele>
        <time>2019-04-14T15:07:03Z</time>
      </trkpt>
      <trkpt lat="43.72841" lon="1.90549">
        <ele>258.25</ele>
        <time>2019-04-14T15:07:20Z</time>
      </trkpt>
      <trkpt lat="43.72854" lon="1.90523">
        <ele>257.77</ele>
        <time>2019-04-14T15:07:40Z</time>
      </trkpt>
      <trkpt lat="43.72854" lon="1.90521">
        <ele>257.77</ele>
        <time>2019-04-14T15:07:41Z</time>
      </trkpt>
      <trkpt lat="43.72865" lon="1.90495">
        <ele>256.33</ele>
        <time>2019-04-14T15:08:00Z</time>
      </trkpt>
      <trkpt lat="43.72873" lon="1.90474">
        <ele>255.85</ele>
        <time>2019-04-14T15:08:17Z</time>
      </trkpt>
      <trkpt lat="43.72874" lon="1.90467">
        <ele>255.85</ele>
        <time>2019-04-14T15:08:22Z</time>
      </trkpt>
      <trkpt lat="43.72879" lon="1.90439">
        <ele>254.41</ele>
        <time>2019-04-14T15:08:40Z</time>
      </trkpt>
      <trkpt lat="43.72895" lon="1.90407">
        <ele>253.44</ele>
        <time>2019-04-14T15:09:02Z</time>
      </trkpt>
      <trkpt lat="43.72904" lon="1.90395">
        <ele>254.41</ele>
        <time>2019-04-14T15:09:12Z</time>
      </trkpt>
      <trkpt lat="43.7291" lon="1.90386">
        <ele>253.44</ele>
        <time>2019-04-14T15:09:20Z</time>
      </trkpt>
      <trkpt lat="43.72926" lon="1.90374">
        <ele>254.41</ele>
        <time>2019-04-14T15:09:36Z</time>
      </trkpt>
      <trkpt lat="43.72933" lon="1.90389">
        <ele>256.81</ele>
        <time>2019-04-14T15:09:51Z</time>
      </trkpt>
      <trkpt lat="43.72937" lon="1.90396">
        <ele>257.77</ele>
        <time>2019-04-14T15:09:58Z</time>
      </trkpt>
      <trkpt lat="43.72946" lon="1.90402">
        <ele>259.69</ele>
        <time>2019-04-14T15:10:12Z</time>
      </trkpt>
      <trkpt lat="43.72949" lon="1.90402">
        <ele>259.69</ele>
        <time>2019-04-14T15:10:16Z</time>
      </trkpt>
      <trkpt lat="43.72961" lon="1.90405">
        <ele>260.17</ele>
        <time>2019-04-14T15:10:33Z</time>
      </trkpt>
      <trkpt lat="43.72968" lon="1.90402">
        <ele>260.17</ele>
        <time>2019-04-14T15:10:41Z</time>
      </trkpt>
      <trkpt lat="43.72973" lon="1.90399">
        <ele>260.17</ele>
        <time>2019-04-14T15:11:00Z</time>
      </trkpt>
      <trkpt lat="43.72972" lon="1.90399">
        <ele>260.17</ele>
        <time>2019-04-14T15:11:28Z</time>
      </trkpt>
      <trkpt lat="43.72972" lon="1.90401">
        <ele>260.17</ele>
        <time>2019-04-14T15:11:46Z</time>
      </trkpt>
      <trkpt lat="43.72972" lon="1.90401">
        <ele>260.17</ele>
        <time>2019-04-14T15:12:18Z</time>
      </trkpt>
      <trkpt lat="43.72971" lon="1.90401">
        <ele>260.65</ele>
        <time>2019-04-14T15:12:49Z</time>
      </trkpt>
    </trkseg>
  </trk>
</gpx>